Wetterdaten: Freitag, 09.01.2015
Datum Zeit Temp. Aussen +5cm Feuchte Auss Luftdruck Regen Sonnenschein Regendauer Solar Windben
09.01.2015 00:00 6,3 C 4,4 C 96 % 1026,8 hPa 0,0 l/m 0 min 0 min 0 W/m 23,0 km/h (4 Bft)
09.01.2015 00:02 6,2 C 4,4 C 96 % 1026,8 hPa 0,0 l/m 0 min 0 min 0 W/m 25,1 km/h (4 Bft)
09.01.2015 00:05 6,2 C 4,4 C 96 % 1026,8 hPa 0,0 l/m 0 min 0 min 0 W/m 25,1 km/h (4 Bft)
09.01.2015 00:06 6,2 C 4,4 C 96 % 1026,8 hPa 0,0 l/m 0 min 0 min 0 W/m 25,1 km/h (4 Bft)
09.01.2015 00:08 6,2 C 4,4 C 96 % 1026,8 hPa 0,0 l/m 0 min 0 min 0 W/m 25,1 km/h (4 Bft)
09.01.2015 00:10 6,2 C 5,0 C 96 % 1026,8 hPa 0,0 l/m 0 min 0 min 0 W/m 20,9 km/h (4 Bft)
09.01.2015 00:12 6,2 C 5,0 C 96 % 1026,8 hPa 0,0 l/m 0 min 0 min 0 W/m 27,2 km/h (4 Bft)
09.01.2015 00:14 6,2 C 5,0 C 96 % 1026,7 hPa 0,0 l/m 0 min 0 min 0 W/m 18,8 km/h (3 Bft)
09.01.2015 00:16 6,2 C 4,4 C 96 % 1026,7 hPa 0,0 l/m 0 min 0 min 0 W/m 18,8 km/h (3 Bft)
09.01.2015 00:18 6,2 C 4,4 C 95 % 1026,7 hPa 0,0 l/m 0 min 0 min 0 W/m 20,9 km/h (4 Bft)
09.01.2015 00:20 6,2 C 4,4 C 95 % 1026,5 hPa 0,0 l/m 0 min 0 min 0 W/m 20,9 km/h (4 Bft)
09.01.2015 00:22 6,2 C 4,4 C 95 % 1026,4 hPa 0,0 l/m 0 min 0 min 0 W/m 14,6 km/h (3 Bft)
09.01.2015 00:24 6,2 C 4,4 C 95 % 1026,3 hPa 0,0 l/m 0 min 0 min 0 W/m 18,8 km/h (3 Bft)
09.01.2015 00:26 6,2 C 4,4 C 95 % 1026,4 hPa 0,0 l/m 0 min 0 min 0 W/m 27,2 km/h (4 Bft)
09.01.2015 00:28 6,2 C 4,4 C 95 % 1026,4 hPa 0,0 l/m 0 min 0 min 0 W/m 25,1 km/h (4 Bft)
09.01.2015 00:30 6,1 C 4,4 C 95 % 1026,4 hPa 0,0 l/m 0 min 0 min 0 W/m 20,9 km/h (4 Bft)
09.01.2015 00:32 6,1 C 4,4 C 95 % 1026,4 hPa 0,0 l/m 0 min 0 min 0 W/m 18,8 km/h (3 Bft)
09.01.2015 00:34 6,1 C 4,4 C 95 % 1026,3 hPa 0,0 l/m 0 min 0 min 0 W/m 18,8 km/h (3 Bft)
09.01.2015 00:36 6,1 C 4,4 C 95 % 1026,1 hPa 0,0 l/m 0 min 0 min 0 W/m 25,1 km/h (4 Bft)
09.01.2015 00:38 6,1 C 4,4 C 95 % 1026,1 hPa 0,0 l/m 0 min 0 min 0 W/m 25,1 km/h (4 Bft)
09.01.2015 00:40 6,1 C 4,4 C 95 % 1026,0 hPa 0,0 l/m 0 min 0 min 0 W/m 20,9 km/h (4 Bft)
09.01.2015 00:42 6,1 C 4,4 C 95 % 1025,9 hPa 0,0 l/m 0 min 0 min 0 W/m 20,9 km/h (4 Bft)
09.01.2015 00:44 6,0 C 4,4 C 95 % 1025,8 hPa 0,0 l/m 0 min 0 min 0 W/m 14,6 km/h (3 Bft)
09.01.2015 00:46 6,0 C 4,4 C 95 % 1025,9 hPa 0,0 l/m 0 min 0 min 0 W/m 18,8 km/h (3 Bft)
09.01.2015 00:48 6,0 C 4,4 C 95 % 1025,8 hPa 0,0 l/m 0 min 0 min 0 W/m 23,0 km/h (4 Bft)
09.01.2015 00:50 6,0 C 4,4 C 95 % 1025,8 hPa 0,0 l/m 0 min 0 min 0 W/m 25,1 km/h (4 Bft)
09.01.2015 00:52 6,0 C 4,4 C 95 % 1025,8 hPa 0,0 l/m 0 min 0 min 0 W/m 25,1 km/h (4 Bft)
09.01.2015 00:54 6,0 C 4,4 C 95 % 1025,8 hPa 0,0 l/m 0 min 0 min 0 W/m 23,0 km/h (4 Bft)
09.01.2015 00:56 6,0 C 4,4 C 95 % 1025,7 hPa 0,0 l/m 0 min 0 min 0 W/m 18,8 km/h (3 Bft)
09.01.2015 00:58 6,0 C 4,4 C 95 % 1025,7 hPa 0,0 l/m 0 min 0 min 0 W/m 16,7 km/h (3 Bft)
09.01.2015 01:00 5,9 C 4,4 C 95 % 1025,7 hPa 0,0 l/m 0 min 0 min 0 W/m 20,9 km/h (4 Bft)
09.01.2015 01:02 5,9 C 4,4 C 95 % 1025,8 hPa 0,0 l/m 0 min 0 min 0 W/m 25,1 km/h (4 Bft)
09.01.2015 01:04 5,9 C 4,4 C 95 % 1025,9 hPa 0,0 l/m 0 min 0 min 0 W/m 18,8 km/h (3 Bft)
09.01.2015 01:06 5,9 C 4,4 C 95 % 1025,7 hPa 0,0 l/m 0 min 0 min 0 W/m 14,6 km/h (3 Bft)
09.01.2015 01:08 5,9 C 3,9 C 95 % 1025,7 hPa 0,0 l/m 0 min 0 min 0 W/m 20,9 km/h (4 Bft)
09.01.2015 01:10 5,9 C 3,9 C 95 % 1025,6 hPa 0,0 l/m 0 min 0 min 0 W/m 16,7 km/h (3 Bft)
09.01.2015 01:12 5,9 C 3,9 C 95 % 1025,5 hPa 0,0 l/m 0 min 0 min 0 W/m 16,7 km/h (3 Bft)
09.01.2015 01:14 5,8 C 3,9 C 95 % 1025,5 hPa 0,0 l/m 0 min 0 min 0 W/m 20,9 km/h (4 Bft)
09.01.2015 01:16 5,8 C 4,4 C 95 % 1025,5 hPa 0,0 l/m 0 min 0 min 0 W/m 25,1 km/h (4 Bft)
09.01.2015 01:18 5,8 C 4,4 C 95 % 1025,5 hPa 0,0 l/m 0 min 0 min 0 W/m 29,3 km/h (5 Bft)
09.01.2015 01:20 5,8 C 4,4 C 95 % 1025,5 hPa 0,0 l/m 0 min 0 min 0 W/m 18,8 km/h (3 Bft)
09.01.2015 01:22 5,8 C 3,9 C 95 % 1025,5 hPa 0,0 l/m 0 min 0 min 0 W/m 14,6 km/h (3 Bft)
09.01.2015 01:24 5,8 C 3,9 C 95 % 1025,7 hPa 0,0 l/m 0 min 0 min 0 W/m 25,1 km/h (4 Bft)
09.01.2015 01:26 5,8 C 3,9 C 95 % 1025,7 hPa 0,0 l/m 0 min 0 min 0 W/m 20,9 km/h (4 Bft)
09.01.2015 01:28 5,8 C 3,9 C 95 % 1025,9 hPa 0,0 l/m 0 min 0 min 0 W/m 20,9 km/h (4 Bft)
09.01.2015 01:30 5,7 C 3,9 C 95 % 1025,9 hPa 0,0 l/m 0 min 0 min 0 W/m 20,9 km/h (4 Bft)
09.01.2015 01:32 5,7 C 3,9 C 95 % 1025,9 hPa 0,0 l/m 0 min 0 min 0 W/m 16,7 km/h (3 Bft)
09.01.2015 01:34 5,7 C 3,9 C 95 % 1025,9 hPa 0,0 l/m 0 min 0 min 0 W/m 18,8 km/h (3 Bft)
09.01.2015 01:36 5,7 C 3,9 C 95 % 1025,9 hPa 0,0 l/m 0 min 0 min 0 W/m 18,8 km/h (3 Bft)
09.01.2015 01:38 5,7 C 3,9 C 95 % 1025,9 hPa 0,0 l/m 0 min 0 min 0 W/m 14,6 km/h (3 Bft)
09.01.2015 01:40 5,7 C 3,9 C 95 % 1025,9 hPa 0,0 l/m 0 min 0 min 0 W/m 18,8 km/h (3 Bft)
09.01.2015 01:42 5,7 C 3,9 C 95 % 1026,0 hPa 0,0 l/m 0 min 0 min 0 W/m 12,6 km/h (3 Bft)
09.01.2015 01:44 5,7 C 3,9 C 95 % 1025,9 hPa 0,0 l/m 0 min 0 min 0 W/m 16,7 km/h (3 Bft)
09.01.2015 01:46 5,7 C 3,9 C 95 % 1025,9 hPa 0,0 l/m 0 min 0 min 0 W/m 29,3 km/h (5 Bft)
09.01.2015 01:48 5,7 C 3,9 C 95 % 1025,8 hPa 0,0 l/m 0 min 0 min 0 W/m 16,7 km/h (3 Bft)
09.01.2015 01:50 5,6 C 3,9 C 95 % 1025,8 hPa 0,0 l/m 0 min 0 min 0 W/m 16,7 km/h (3 Bft)
09.01.2015 01:52 5,6 C 3,9 C 95 % 1025,7 hPa 0,0 l/m 0 min 0 min 0 W/m 20,9 km/h (4 Bft)
09.01.2015 01:54 5,6 C 3,9 C 95 % 1025,6 hPa 0,0 l/m 0 min 0 min 0 W/m 20,9 km/h (4 Bft)
09.01.2015 01:56 5,6 C 3,9 C 95 % 1025,6 hPa 0,0 l/m 0 min 0 min 0 W/m 20,9 km/h (4 Bft)
09.01.2015 01:58 5,7 C 3,9 C 95 % 1025,5 hPa 0,0 l/m 0 min 0 min 0 W/m 23,0 km/h (4 Bft)
09.01.2015 02:00 5,7 C 4,4 C 95 % 1025,5 hPa 0,0 l/m 0 min 0 min 0 W/m 25,1 km/h (4 Bft)
09.01.2015 02:02 5,7 C 4,4 C 95 % 1025,4 hPa 0,0 l/m 0 min 0 min 0 W/m 29,3 km/h (5 Bft)
09.01.2015 02:04 5,7 C 4,4 C 95 % 1025,3 hPa 0,0 l/m 0 min 0 min 0 W/m 16,7 km/h (3 Bft)
09.01.2015 02:06 5,7 C 4,4 C 95 % 1025,3 hPa 0,0 l/m 0 min 0 min 0 W/m 23,0 km/h (4 Bft)
09.01.2015 02:08 5,7 C 4,4 C 95 % 1025,2 hPa 0,0 l/m 0 min 0 min 0 W/m 20,9 km/h (4 Bft)
09.01.2015 02:10 5,7 C 4,4 C 95 % 1025,5 hPa 0,0 l/m 0 min 0 min 0 W/m 20,9 km/h (4 Bft)
09.01.2015 02:12 5,7 C 4,4 C 95 % 1025,6 hPa 0,0 l/m 0 min 0 min 0 W/m 18,8 km/h (3 Bft)
09.01.2015 02:14 5,7 C 4,4 C 95 % 1025,6 hPa 0,0 l/m 0 min 0 min 0 W/m 20,9 km/h (4 Bft)
09.01.2015 02:16 5,7 C 4,4 C 95 % 1025,7 hPa 0,0 l/m 0 min 0 min 0 W/m 20,9 km/h (4 Bft)
09.01.2015 02:18 5,8 C 4,4 C 95 % 1025,9 hPa 0,0 l/m 0 min 0 min 0 W/m 25,1 km/h (4 Bft)
09.01.2015 02:20 5,8 C 4,4 C 95 % 1026,1 hPa 0,0 l/m 0 min 0 min 0 W/m 18,8 km/h (3 Bft)
09.01.2015 02:22 5,8 C 4,4 C 95 % 1026,2 hPa 0,0 l/m 0 min 0 min 0 W/m 25,1 km/h (4 Bft)
09.01.2015 02:24 5,8 C 4,4 C 95 % 1026,4 hPa 0,0 l/m 0 min 0 min 0 W/m 25,1 km/h (4 Bft)
09.01.2015 02:26 5,8 C 4,4 C 95 % 1026,1 hPa 0,0 l/m 0 min 0 min 0 W/m 23,0 km/h (4 Bft)
09.01.2015 02:28 5,8 C 4,4 C 95 % 1026,0 hPa 0,0 l/m 0 min 0 min 0 W/m 20,9 km/h (4 Bft)
09.01.2015 02:30 5,8 C 4,4 C 95 % 1026,0 hPa 0,0 l/m 0 min 0 min 0 W/m 16,7 km/h (3 Bft)
09.01.2015 02:32 5,8 C 4,4 C 95 % 1026,2 hPa 0,0 l/m 0 min 0 min 0 W/m 18,8 km/h (3 Bft)
09.01.2015 02:34 5,9 C 4,4 C 95 % 1026,1 hPa 0,0 l/m 0 min 0 min 0 W/m 23,0 km/h (4 Bft)
09.01.2015 02:36 5,9 C 4,4 C 95 % 1026,1 hPa 0,0 l/m 0 min 0 min 0 W/m 18,8 km/h (3 Bft)
09.01.2015 02:38 5,9 C 4,4 C 95 % 1026,2 hPa 0,0 l/m 0 min 0 min 0 W/m 25,1 km/h (4 Bft)
09.01.2015 02:40 5,9 C 4,4 C 95 % 1026,4 hPa 0,0 l/m 0 min 0 min 0 W/m 18,8 km/h (3 Bft)
09.01.2015 02:42 5,9 C 5,0 C 95 % 1026,3 hPa 0,0 l/m 0 min 0 min 0 W/m 20,9 km/h (4 Bft)
09.01.2015 02:44 6,0 C 5,0 C 95 % 1026,0 hPa 0,0 l/m 0 min 0 min 0 W/m 23,0 km/h (4 Bft)
09.01.2015 02:46 6,0 C 5,0 C 95 % 1026,0 hPa 0,0 l/m 0 min 0 min 0 W/m 27,2 km/h (4 Bft)
09.01.2015 02:48 6,0 C 5,0 C 95 % 1025,8 hPa 0,0 l/m 0 min 0 min 0 W/m 31,4 km/h (5 Bft)
09.01.2015 02:50 6,1 C 5,0 C 95 % 1025,7 hPa 0,0 l/m 0 min 0 min 0 W/m 41,8 km/h (6 Bft)
09.01.2015 02:52 6,1 C 5,0 C 95 % 1025,8 hPa 0,0 l/m 0 min 0 min 0 W/m 18,8 km/h (3 Bft)
09.01.2015 02:54 6,1 C 5,0 C 95 % 1025,9 hPa 0,0 l/m 0 min 0 min 0 W/m 20,9 km/h (4 Bft)
09.01.2015 02:56 6,1 C 5,0 C 95 % 1025,8 hPa 0,0 l/m 0 min 0 min 0 W/m 18,8 km/h (3 Bft)
09.01.2015 02:58 6,2 C 5,0 C 95 % 1025,6 hPa 0,0 l/m 0 min 0 min 0 W/m 23,0 km/h (4 Bft)
09.01.2015 03:00 6,2 C 5,0 C 95 % 1025,4 hPa 0,0 l/m 0 min 0 min 0 W/m 18,8 km/h (3 Bft)
09.01.2015 03:02 6,2 C 5,0 C 95 % 1025,2 hPa 0,0 l/m 0 min 0 min 0 W/m 20,9 km/h (4 Bft)
09.01.2015 03:04 6,2 C 5,0 C 95 % 1025,6 hPa 0,0 l/m 0 min 0 min 0 W/m 20,9 km/h (4 Bft)
09.01.2015 03:06 6,2 C 5,0 C 95 % 1025,6 hPa 0,0 l/m 0 min 0 min 0 W/m 29,3 km/h (5 Bft)
09.01.2015 03:08 6,3 C 5,0 C 95 % 1025,7 hPa 0,0 l/m 0 min 0 min 0 W/m 20,9 km/h (4 Bft)
09.01.2015 03:10 6,3 C 5,0 C 95 % 1025,6 hPa 0,0 l/m 0 min 0 min 0 W/m 27,2 km/h (4 Bft)
09.01.2015 03:12 6,4 C 5,0 C 95 % 1025,8 hPa 0,0 l/m 0 min 0 min 0 W/m 25,1 km/h (4 Bft)
09.01.2015 03:14 6,4 C 5,0 C 95 % 1026,5 hPa 0,0 l/m 0 min 0 min 0 W/m 37,7 km/h (5 Bft)
09.01.2015 03:16 6,4 C 5,0 C 95 % 1026,3 hPa 0,0 l/m 0 min 0 min 0 W/m 29,3 km/h (5 Bft)
09.01.2015 03:18 6,4 C 5,0 C 95 % 1026,6 hPa 0,0 l/m 0 min 0 min 0 W/m 33,5 km/h (5 Bft)
09.01.2015 03:20 6,5 C 5,0 C 95 % 1026,6 hPa 0,0 l/m 0 min 0 min 0 W/m 27,2 km/h (4 Bft)
09.01.2015 03:22 6,5 C 5,0 C 95 % 1026,6 hPa 0,0 l/m 0 min 0 min 0 W/m 23,0 km/h (4 Bft)
09.01.2015 03:24 6,5 C 5,0 C 95 % 1026,7 hPa 0,0 l/m 0 min 0 min 0 W/m 20,9 km/h (4 Bft)
09.01.2015 03:26 6,6 C 5,0 C 95 % 1026,7 hPa 0,0 l/m 0 min 0 min 0 W/m 31,4 km/h (5 Bft)
09.01.2015 03:28 6,6 C 5,0 C 95 % 1026,7 hPa 0,0 l/m 0 min 0 min 0 W/m 25,1 km/h (4 Bft)
09.01.2015 03:30 6,6 C 5,0 C 95 % 1026,5 hPa 0,0 l/m 0 min 0 min 0 W/m 25,1 km/h (4 Bft)
09.01.2015 03:32 6,6 C 5,0 C 95 % 1026,5 hPa 0,0 l/m 0 min 0 min 0 W/m 27,2 km/h (4 Bft)
09.01.2015 03:34 6,6 C 5,0 C 95 % 1026,3 hPa 0,0 l/m 0 min 0 min 0 W/m 23,0 km/h (4 Bft)
09.01.2015 03:36 6,6 C 5,6 C 94 % 1026,2 hPa 0,0 l/m 0 min 0 min 0 W/m 31,4 km/h (5 Bft)
09.01.2015 03:38 6,7 C 5,6 C 94 % 1026,2 hPa 0,0 l/m 0 min 0 min 0 W/m 35,6 km/h (5 Bft)
09.01.2015 03:40 6,7 C 5,6 C 95 % 1026,3 hPa 0,0 l/m 0 min 0 min 0 W/m 27,2 km/h (4 Bft)
09.01.2015 03:42 6,7 C 5,6 C 95 % 1026,3 hPa 0,0 l/m 0 min 0 min 0 W/m 33,5 km/h (5 Bft)
09.01.2015 03:44 6,7 C 5,6 C 95 % 1026,3 hPa 0,0 l/m 0 min 0 min 0 W/m 37,7 km/h (5 Bft)
09.01.2015 03:46 6,7 C 5,6 C 95 % 1026,3 hPa 0,0 l/m 0 min 0 min 0 W/m 35,6 km/h (5 Bft)
09.01.2015 03:48 6,8 C 5,6 C 94 % 1026,3 hPa 0,0 l/m 0 min 0 min 0 W/m 27,2 km/h (4 Bft)
09.01.2015 03:50 6,8 C 5,6 C 94 % 1026,3 hPa 0,0 l/m 0 min 0 min 0 W/m 23,0 km/h (4 Bft)
09.01.2015 03:52 6,8 C 5,6 C 94 % 1026,2 hPa 0,0 l/m 0 min 0 min 0 W/m 25,1 km/h (4 Bft)
09.01.2015 03:54 6,8 C 5,6 C 94 % 1026,1 hPa 0,0 l/m 0 min 0 min 0 W/m 39,7 km/h (6 Bft)
09.01.2015 03:56 6,9 C 5,6 C 94 % 1026,1 hPa 0,0 l/m 0 min 0 min 0 W/m 33,5 km/h (5 Bft)
09.01.2015 03:58 6,9 C 5,6 C 94 % 1026,1 hPa 0,0 l/m 0 min 0 min 0 W/m 29,3 km/h (5 Bft)
09.01.2015 04:00 6,9 C 5,6 C 94 % 1025,9 hPa 0,0 l/m 0 min 0 min 0 W/m 27,2 km/h (4 Bft)
09.01.2015 04:02 6,9 C 5,6 C 94 % 1025,8 hPa 0,0 l/m 0 min 0 min 0 W/m 29,3 km/h (5 Bft)
09.01.2015 04:04 6,9 C 5,6 C 94 % 1025,8 hPa 0,0 l/m 0 min 0 min 0 W/m 33,5 km/h (5 Bft)
09.01.2015 04:06 6,9 C 5,6 C 94 % 1025,8 hPa 0,0 l/m 0 min 0 min 0 W/m 31,4 km/h (5 Bft)
09.01.2015 04:08 7,0 C 5,6 C 94 % 1025,9 hPa 0,0 l/m 0 min 0 min 0 W/m 31,4 km/h (5 Bft)
09.01.2015 04:10 7,0 C 5,6 C 94 % 1025,8 hPa 0,0 l/m 0 min 0 min 0 W/m 31,4 km/h (5 Bft)
09.01.2015 04:12 7,1 C 5,6 C 94 % 1025,7 hPa 0,0 l/m 0 min 0 min 0 W/m 33,5 km/h (5 Bft)
09.01.2015 04:14 7,1 C 5,6 C 94 % 1025,6 hPa 0,0 l/m 0 min 0 min 0 W/m 37,7 km/h (5 Bft)
09.01.2015 04:16 7,1 C 5,6 C 94 % 1025,7 hPa 0,0 l/m 0 min 0 min 0 W/m 27,2 km/h (4 Bft)
09.01.2015 04:18 7,1 C 5,6 C 94 % 1025,5 hPa 0,0 l/m 0 min 0 min 0 W/m 37,7 km/h (5 Bft)
09.01.2015 04:20 7,1 C 5,6 C 94 % 1025,3 hPa 0,0 l/m 0 min 0 min 0 W/m 35,6 km/h (5 Bft)
09.01.2015 04:22 7,1 C 5,6 C 93 % 1025,2 hPa 0,0 l/m 0 min 0 min 0 W/m 33,5 km/h (5 Bft)
09.01.2015 04:24 7,1 C 5,6 C 93 % 1024,9 hPa 0,0 l/m 0 min 0 min 0 W/m 31,4 km/h (5 Bft)
09.01.2015 04:26 7,1 C 5,6 C 93 % 1024,7 hPa 0,0 l/m 0 min 0 min 0 W/m 35,6 km/h (5 Bft)
09.01.2015 04:28 7,2 C 5,6 C 93 % 1024,5 hPa 0,0 l/m 0 min 0 min 0 W/m 31,4 km/h (5 Bft)
09.01.2015 04:30 7,2 C 5,6 C 93 % 1024,4 hPa 0,0 l/m 0 min 0 min 0 W/m 39,7 km/h (6 Bft)
09.01.2015 04:32 7,2 C 5,6 C 93 % 1024,3 hPa 0,0 l/m 0 min 0 min 0 W/m 29,3 km/h (5 Bft)
09.01.2015 04:34 7,2 C 5,6 C 93 % 1024,2 hPa 0,0 l/m 0 min 0 min 0 W/m 31,4 km/h (5 Bft)
09.01.2015 04:36 7,2 C 5,6 C 93 % 1024,0 hPa 0,0 l/m 0 min 0 min 0 W/m 27,2 km/h (4 Bft)
09.01.2015 04:38 7,2 C 5,6 C 93 % 1024,0 hPa 0,0 l/m 0 min 0 min 0 W/m 27,2 km/h (4 Bft)
09.01.2015 04:40 7,2 C 5,6 C 93 % 1023,9 hPa 0,0 l/m 0 min 0 min 0 W/m 25,1 km/h (4 Bft)
09.01.2015 04:42 7,2 C 5,6 C 93 % 1023,6 hPa 0,0 l/m 0 min 0 min 0 W/m 31,4 km/h (5 Bft)
09.01.2015 04:44 7,2 C 5,6 C 93 % 1023,4 hPa 0,0 l/m 0 min 0 min 0 W/m 25,1 km/h (4 Bft)
09.01.2015 04:46 7,2 C 5,6 C 92 % 1023,3 hPa 0,0 l/m 0 min 0 min 0 W/m 39,7 km/h (6 Bft)
09.01.2015 04:48 7,2 C 5,6 C 92 % 1023,3 hPa 0,0 l/m 0 min 0 min 0 W/m 25,1 km/h (4 Bft)
09.01.2015 04:50 7,2 C 5,6 C 92 % 1023,3 hPa 0,0 l/m 0 min 0 min 0 W/m 46,0 km/h (6 Bft)
09.01.2015 04:52 7,2 C 5,6 C 92 % 1022,8 hPa 0,0 l/m 0 min 0 min 0 W/m 27,2 km/h (4 Bft)
09.01.2015 04:54 7,1 C 5,6 C 92 % 1022,8 hPa 0,0 l/m 0 min 0 min 0 W/m 31,4 km/h (5 Bft)
09.01.2015 04:56 7,1 C 5,6 C 92 % 1022,8 hPa 0,0 l/m 0 min 0 min 0 W/m 37,7 km/h (5 Bft)
09.01.2015 04:58 7,1 C 5,6 C 92 % 1022,7 hPa 0,0 l/m 0 min 0 min 0 W/m 43,9 km/h (6 Bft)
09.01.2015 05:00 7,1 C 5,6 C 92 % 1022,7 hPa 0,0 l/m 0 min 0 min 0 W/m 46,0 km/h (6 Bft)
09.01.2015 05:02 7,1 C 5,6 C 92 % 1022,6 hPa 0,0 l/m 0 min 0 min 0 W/m 20,9 km/h (4 Bft)
09.01.2015 05:04 7,1 C 5,6 C 92 % 1022,6 hPa 0,0 l/m 0 min 0 min 0 W/m 35,6 km/h (5 Bft)
09.01.2015 05:06 7,1 C 5,6 C 92 % 1022,2 hPa 0,0 l/m 0 min 0 min 0 W/m 41,8 km/h (6 Bft)
09.01.2015 05:08 7,1 C 5,6 C 92 % 1022,2 hPa 0,0 l/m 0 min 0 min 0 W/m 39,7 km/h (6 Bft)
09.01.2015 05:10 7,1 C 5,6 C 92 % 1022,2 hPa 0,0 l/m 0 min 0 min 0 W/m 48,1 km/h (6 Bft)
09.01.2015 05:12 7,1 C 5,6 C 92 % 1022,1 hPa 0,0 l/m 0 min 0 min 0 W/m 31,4 km/h (5 Bft)
09.01.2015 05:14 7,1 C 5,6 C 92 % 1022,0 hPa 0,0 l/m 0 min 0 min 0 W/m 35,6 km/h (5 Bft)
09.01.2015 05:16 7,1 C 5,6 C 92 % 1022,0 hPa 0,0 l/m 0 min 0 min 0 W/m 43,9 km/h (6 Bft)
09.01.2015 05:18 7,1 C 5,6 C 92 % 1021,9 hPa 0,0 l/m 0 min 0 min 0 W/m 39,7 km/h (6 Bft)
09.01.2015 05:20 7,1 C 5,6 C 92 % 1021,6 hPa 0,0 l/m 0 min 0 min 0 W/m 37,7 km/h (5 Bft)
09.01.2015 05:22 7,2 C 5,6 C 92 % 1021,6 hPa 0,0 l/m 0 min 0 min 0 W/m 39,7 km/h (6 Bft)
09.01.2015 05:24 7,2 C 5,6 C 92 % 1021,4 hPa 0,0 l/m 0 min 0 min 0 W/m 48,1 km/h (6 Bft)
09.01.2015 05:26 7,2 C 5,6 C 91 % 1021,3 hPa 0,0 l/m 0 min 0 min 0 W/m 37,7 km/h (5 Bft)
09.01.2015 05:28 7,2 C 5,6 C 91 % 1021,1 hPa 0,0 l/m 0 min 0 min 0 W/m 29,3 km/h (5 Bft)
09.01.2015 05:30 7,2 C 5,6 C 91 % 1021,5 hPa 0,0 l/m 0 min 0 min 0 W/m 37,7 km/h (5 Bft)
09.01.2015 05:32 7,2 C 5,6 C 91 % 1021,2 hPa 0,0 l/m 0 min 0 min 0 W/m 29,3 km/h (5 Bft)
09.01.2015 05:34 7,2 C 5,6 C 91 % 1021,2 hPa 0,0 l/m 0 min 0 min 0 W/m 37,7 km/h (5 Bft)
09.01.2015 05:36 7,3 C 6,1 C 91 % 1020,6 hPa 0,0 l/m 0 min 0 min 0 W/m 43,9 km/h (6 Bft)
09.01.2015 05:38 7,3 C 5,6 C 91 % 1020,5 hPa 0,0 l/m 0 min 0 min 0 W/m 33,5 km/h (5 Bft)
09.01.2015 05:40 7,3 C 5,6 C 91 % 1020,5 hPa 0,0 l/m 0 min 0 min 0 W/m 35,6 km/h (5 Bft)
09.01.2015 05:42 7,3 C 6,1 C 91 % 1021,2 hPa 0,0 l/m 0 min 0 min 0 W/m 43,9 km/h (6 Bft)
09.01.2015 05:44 7,3 C 5,6 C 91 % 1020,7 hPa 0,0 l/m 0 min 0 min 0 W/m 46,0 km/h (6 Bft)
09.01.2015 05:46 7,4 C 6,1 C 91 % 1020,5 hPa 0,0 l/m 0 min 0 min 0 W/m 39,7 km/h (6 Bft)
09.01.2015 05:48 7,4 C 6,1 C 90 % 1021,2 hPa 0,0 l/m 0 min 0 min 0 W/m 37,7 km/h (5 Bft)
09.01.2015 05:50 7,4 C 6,1 C 90 % 1021,4 hPa 0,0 l/m 0 min 0 min 0 W/m 50,2 km/h (7 Bft)
09.01.2015 05:52 7,4 C 6,1 C 90 % 1021,3 hPa 0,0 l/m 0 min 0 min 0 W/m 33,5 km/h (5 Bft)
09.01.2015 05:54 7,4 C 6,1 C 90 % 1021,3 hPa 0,0 l/m 0 min 0 min 0 W/m 41,8 km/h (6 Bft)
09.01.2015 05:56 7,4 C 6,1 C 90 % 1021,4 hPa 0,0 l/m 0 min 0 min 0 W/m 37,7 km/h (5 Bft)
09.01.2015 05:58 7,4 C 6,1 C 90 % 1021,3 hPa 0,0 l/m 0 min 0 min 0 W/m 33,5 km/h (5 Bft)
09.01.2015 06:00 7,4 C 6,1 C 89 % 1021,1 hPa 0,0 l/m 0 min 0 min 0 W/m 43,9 km/h (6 Bft)
09.01.2015 06:02 7,5 C 6,1 C 89 % 1021,1 hPa 0,0 l/m 0 min 0 min 0 W/m 39,7 km/h (6 Bft)
09.01.2015 06:05 7,5 C 6,1 C 89 % 1021,3 hPa 0,0 l/m 0 min 0 min 0 W/m 37,7 km/h (5 Bft)
09.01.2015 06:06 7,6 C 6,1 C 89 % 1021,4 hPa 0,0 l/m 0 min 0 min 0 W/m 37,7 km/h (5 Bft)
09.01.2015 06:08 7,6 C 6,1 C 89 % 1021,4 hPa 0,0 l/m 0 min 0 min 0 W/m 41,8 km/h (6 Bft)
09.01.2015 06:10 7,6 C 6,1 C 88 % 1021,3 hPa 0,0 l/m 0 min 0 min 0 W/m 37,7 km/h (5 Bft)
09.01.2015 06:12 7,6 C 6,1 C 88 % 1021,4 hPa 0,0 l/m 0 min 0 min 0 W/m 37,7 km/h (5 Bft)
09.01.2015 06:14 7,6 C 6,1 C 88 % 1021,3 hPa 0,0 l/m 0 min 0 min 0 W/m 27,2 km/h (4 Bft)
09.01.2015 06:16 7,6 C 6,1 C 88 % 1021,4 hPa 0,0 l/m 0 min 0 min 0 W/m 31,4 km/h (5 Bft)
09.01.2015 06:18 7,6 C 6,1 C 88 % 1021,4 hPa 0,0 l/m 0 min 0 min 0 W/m 31,4 km/h (5 Bft)
09.01.2015 06:20 7,6 C 6,1 C 88 % 1021,4 hPa 0,0 l/m 0 min 0 min 0 W/m 35,6 km/h (5 Bft)
09.01.2015 06:22 7,6 C 6,1 C 88 % 1021,3 hPa 0,0 l/m 0 min 0 min 0 W/m 27,2 km/h (4 Bft)
09.01.2015 06:24 7,6 C 6,1 C 87 % 1021,4 hPa 0,0 l/m 0 min 0 min 0 W/m 37,7 km/h (5 Bft)
09.01.2015 06:26 7,6 C 6,1 C 87 % 1021,4 hPa 0,0 l/m 0 min 0 min 0 W/m 41,8 km/h (6 Bft)
09.01.2015 06:28 7,6 C 6,1 C 87 % 1021,6 hPa 0,0 l/m 0 min 0 min 0 W/m 39,7 km/h (6 Bft)
09.01.2015 06:30 7,7 C 6,1 C 87 % 1021,7 hPa 0,0 l/m 0 min 0 min 0 W/m 43,9 km/h (6 Bft)
09.01.2015 06:32 7,7 C 6,1 C 87 % 1021,8 hPa 0,0 l/m 0 min 0 min 0 W/m 39,7 km/h (6 Bft)
09.01.2015 06:34 7,7 C 6,1 C 86 % 1021,8 hPa 0,0 l/m 0 min 0 min 0 W/m 35,6 km/h (5 Bft)
09.01.2015 06:36 7,7 C 6,1 C 86 % 1021,7 hPa 0,0 l/m 0 min 0 min 0 W/m 39,7 km/h (6 Bft)
09.01.2015 06:38 7,7 C 6,1 C 86 % 1021,6 hPa 0,0 l/m 0 min 0 min 0 W/m 37,7 km/h (5 Bft)
09.01.2015 06:40 7,7 C 6,1 C 86 % 1021,6 hPa 0,0 l/m 0 min 0 min 0 W/m 31,4 km/h (5 Bft)
09.01.2015 06:42 7,8 C 6,1 C 86 % 1021,5 hPa 0,0 l/m 0 min 0 min 0 W/m 46,0 km/h (6 Bft)
09.01.2015 06:44 7,8 C 6,1 C 86 % 1021,5 hPa 0,0 l/m 0 min 0 min 0 W/m 43,9 km/h (6 Bft)
09.01.2015 06:46 7,8 C 6,1 C 86 % 1021,5 hPa 0,0 l/m 0 min 0 min 0 W/m 35,6 km/h (5 Bft)
09.01.2015 06:48 7,8 C 6,1 C 86 % 1021,5 hPa 0,0 l/m 0 min 0 min 0 W/m 46,0 km/h (6 Bft)
09.01.2015 06:50 7,8 C 6,1 C 86 % 1021,4 hPa 0,0 l/m 0 min 0 min 0 W/m 43,9 km/h (6 Bft)
09.01.2015 06:52 7,8 C 6,1 C 85 % 1021,3 hPa 0,0 l/m 0 min 0 min 0 W/m 48,1 km/h (6 Bft)
09.01.2015 06:54 7,8 C 6,1 C 85 % 1021,3 hPa 0,0 l/m 0 min 0 min 0 W/m 41,8 km/h (6 Bft)
09.01.2015 06:56 7,9 C 6,7 C 85 % 1021,0 hPa 0,0 l/m 0 min 0 min 0 W/m 58,6 km/h (7 Bft)
09.01.2015 06:58 7,9 C 6,7 C 85 % 1021,0 hPa 0,0 l/m 0 min 0 min 0 W/m 48,1 km/h (6 Bft)
09.01.2015 07:00 7,9 C 6,1 C 85 % 1020,7 hPa 0,0 l/m 0 min 0 min 0 W/m 39,7 km/h (6 Bft)
09.01.2015 07:02 7,9 C 6,1 C 84 % 1020,7 hPa 0,0 l/m 0 min 0 min 0 W/m 54,4 km/h (7 Bft)
09.01.2015 07:04 7,9 C 6,1 C 84 % 1020,8 hPa 0,0 l/m 0 min 0 min 0 W/m 50,2 km/h (7 Bft)
09.01.2015 07:06 7,9 C 6,1 C 84 % 1020,7 hPa 0,0 l/m 0 min 0 min 0 W/m 31,4 km/h (5 Bft)
09.01.2015 07:08 7,9 C 6,1 C 84 % 1020,4 hPa 0,0 l/m 0 min 0 min 0 W/m 35,6 km/h (5 Bft)
09.01.2015 07:10 7,9 C 6,1 C 84 % 1020,4 hPa 0,0 l/m 0 min 0 min 0 W/m 37,7 km/h (5 Bft)
09.01.2015 07:12 7,9 C 6,1 C 84 % 1020,2 hPa 0,0 l/m 0 min 0 min 0 W/m 43,9 km/h (6 Bft)
09.01.2015 07:14 7,9 C 6,1 C 84 % 1020,0 hPa 0,0 l/m 0 min 0 min 0 W/m 35,6 km/h (5 Bft)
09.01.2015 07:16 7,9 C 6,1 C 84 % 1020,0 hPa 0,0 l/m 0 min 0 min 0 W/m 43,9 km/h (6 Bft)
09.01.2015 07:18 7,9 C 6,1 C 84 % 1019,9 hPa 0,0 l/m 0 min 0 min 0 W/m 20,9 km/h (4 Bft)
09.01.2015 07:20 7,8 C 6,1 C 84 % 1019,9 hPa 0,0 l/m 0 min 0 min 0 W/m 46,0 km/h (6 Bft)
09.01.2015 07:22 7,8 C 6,1 C 84 % 1020,0 hPa 0,0 l/m 0 min 0 min 0 W/m 48,1 km/h (6 Bft)
09.01.2015 07:24 7,8 C 6,1 C 84 % 1019,8 hPa 0,0 l/m 0 min 0 min 0 W/m 43,9 km/h (6 Bft)
09.01.2015 07:26 7,8 C 6,1 C 84 % 1019,7 hPa 0,0 l/m 0 min 0 min 0 W/m 46,0 km/h (6 Bft)
09.01.2015 07:28 7,8 C 6,1 C 84 % 1019,9 hPa 0,0 l/m 0 min 0 min 0 W/m 48,1 km/h (6 Bft)
09.01.2015 07:30 7,8 C 6,1 C 84 % 1019,7 hPa 0,0 l/m 0 min 0 min 0 W/m 33,5 km/h (5 Bft)
09.01.2015 07:32 7,8 C 6,1 C 84 % 1019,8 hPa 0,0 l/m 0 min 0 min 0 W/m 29,3 km/h (5 Bft)
09.01.2015 07:34 7,8 C 6,1 C 84 % 1019,8 hPa 0,0 l/m 0 min 0 min 0 W/m 41,8 km/h (6 Bft)
09.01.2015 07:36 7,8 C 6,1 C 84 % 1019,8 hPa 0,0 l/m 0 min 0 min 0 W/m 39,7 km/h (6 Bft)
09.01.2015 07:38 7,8 C 6,1 C 84 % 1019,7 hPa 0,0 l/m 0 min 0 min 0 W/m 41,8 km/h (6 Bft)
09.01.2015 07:40 7,8 C 6,1 C 84 % 1019,6 hPa 0,0 l/m 0 min 0 min 0 W/m 54,4 km/h (7 Bft)
09.01.2015 07:42 7,8 C 6,1 C 85 % 1019,5 hPa 0,0 l/m 0 min 0 min 0 W/m 50,2 km/h (7 Bft)
09.01.2015 07:44 7,8 C 6,1 C 85 % 1019,5 hPa 0,0 l/m 0 min 0 min 0 W/m 35,6 km/h (5 Bft)
09.01.2015 07:46 7,8 C 6,1 C 85 % 1019,6 hPa 0,0 l/m 0 min 0 min 0 W/m 37,7 km/h (5 Bft)
09.01.2015 07:48 7,8 C 6,1 C 85 % 1019,6 hPa 0,0 l/m 0 min 0 min 0 W/m 46,0 km/h (6 Bft)
09.01.2015 07:50 7,8 C 6,1 C 85 % 1019,5 hPa 0,0 l/m 0 min 0 min 0 W/m 52,3 km/h (7 Bft)
09.01.2015 07:52 7,8 C 6,1 C 85 % 1019,3 hPa 0,0 l/m 0 min 0 min 0 W/m 46,0 km/h (6 Bft)
09.01.2015 07:54 7,8 C 6,1 C 85 % 1019,1 hPa 0,0 l/m 0 min 0 min 0 W/m 43,9 km/h (6 Bft)
09.01.2015 07:56 7,8 C 6,1 C 85 % 1019,0 hPa 0,0 l/m 0 min 0 min 0 W/m 35,6 km/h (5 Bft)
09.01.2015 07:58 7,8 C 6,1 C 86 % 1018,9 hPa 0,0 l/m 0 min 0 min 0 W/m 43,9 km/h (6 Bft)
09.01.2015 08:00 7,8 C 6,1 C 86 % 1019,1 hPa 0,0 l/m 0 min 0 min 0 W/m 56,5 km/h (7 Bft)
09.01.2015 08:02 7,8 C 6,1 C 86 % 1018,9 hPa 0,0 l/m 0 min 0 min 0 W/m 48,1 km/h (6 Bft)
09.01.2015 08:04 7,8 C 6,1 C 86 % 1018,9 hPa 0,0 l/m 0 min 0 min 0 W/m 58,6 km/h (7 Bft)
09.01.2015 08:06 7,8 C 6,1 C 86 % 1019,1 hPa 0,0 l/m 0 min 0 min 0 W/m 66,9 km/h (8 Bft)
09.01.2015 08:08 7,8 C 6,1 C 86 % 1019,2 hPa 0,0 l/m 0 min 0 min 0 W/m 35,6 km/h (5 Bft)
09.01.2015 08:10 7,8 C 6,1 C 86 % 1019,0 hPa 0,0 l/m 0 min 0 min 0 W/m 54,4 km/h (7 Bft)
09.01.2015 08:12 7,8 C 6,1 C 86 % 1019,3 hPa 0,0 l/m 0 min 0 min 0 W/m 60,7 km/h (7 Bft)
09.01.2015 08:14 7,8 C 6,1 C 87 % 1019,1 hPa 0,0 l/m 0 min 0 min 0 W/m 58,6 km/h (7 Bft)
09.01.2015 08:16 7,8 C 6,7 C 87 % 1019,0 hPa 0,0 l/m 0 min 0 min 0 W/m 60,7 km/h (7 Bft)
09.01.2015 08:18 7,8 C 6,7 C 87 % 1019,2 hPa 0,0 l/m 0 min 0 min 0 W/m 60,7 km/h (7 Bft)
09.01.2015 08:20 7,9 C 6,1 C 87 % 1019,1 hPa 0,0 l/m 0 min 0 min 0 W/m 48,1 km/h (6 Bft)
09.01.2015 08:22 7,9 C 6,1 C 87 % 1019,2 hPa 0,0 l/m 0 min 0 min 0 W/m 50,2 km/h (7 Bft)
09.01.2015 08:24 7,9 C 6,1 C 87 % 1019,1 hPa 0,0 l/m 0 min 0 min 0 W/m 46,0 km/h (6 Bft)
09.01.2015 08:26 7,8 C 6,1 C 87 % 1019,1 hPa 0,0 l/m 0 min 0 min 0 W/m 46,0 km/h (6 Bft)
09.01.2015 08:28 7,8 C 6,1 C 87 % 1019,3 hPa 0,0 l/m 0 min 0 min 0 W/m 46,0 km/h (6 Bft)
09.01.2015 08:30 7,8 C 6,1 C 87 % 1019,4 hPa 0,0 l/m 0 min 0 min 0 W/m 62,8 km/h (8 Bft)
09.01.2015 08:32 7,8 C 6,1 C 88 % 1018,8 hPa 0,0 l/m 0 min 0 min 0 W/m 56,5 km/h (7 Bft)
09.01.2015 08:34 7,8 C 6,1 C 88 % 1018,8 hPa 0,0 l/m 0 min 0 min 0 W/m 46,0 km/h (6 Bft)
09.01.2015 08:36 7,8 C 6,1 C 88 % 1018,8 hPa 0,0 l/m 0 min 0 min 0 W/m 60,7 km/h (7 Bft)
09.01.2015 08:38 7,8 C 6,1 C 88 % 1019,0 hPa 0,0 l/m 0 min 0 min 0 W/m 69,0 km/h (8 Bft)
09.01.2015 08:40 7,8 C 6,1 C 88 % 1018,6 hPa 0,0 l/m 0 min 0 min 0 W/m 62,8 km/h (8 Bft)
09.01.2015 08:42 7,7 C 6,1 C 88 % 1018,8 hPa 0,0 l/m 0 min 0 min 0 W/m 66,9 km/h (8 Bft)
09.01.2015 08:44 7,7 C 6,1 C 88 % 1018,7 hPa 0,0 l/m 0 min 0 min 0 W/m 56,5 km/h (7 Bft)
09.01.2015 08:46 7,7 C 6,1 C 89 % 1018,7 hPa 0,0 l/m 0 min 0 min 0 W/m 56,5 km/h (7 Bft)
09.01.2015 08:48 7,7 C 6,1 C 89 % 1018,7 hPa 0,0 l/m 0 min 0 min 0 W/m 60,7 km/h (7 Bft)
09.01.2015 08:50 7,7 C 6,1 C 89 % 1018,7 hPa 0,0 l/m 0 min 0 min 0 W/m 54,4 km/h (7 Bft)
09.01.2015 08:52 7,7 C 6,1 C 89 % 1018,7 hPa 0,0 l/m 0 min 0 min 2 W/m 48,1 km/h (6 Bft)
09.01.2015 08:54 7,7 C 6,1 C 89 % 1018,6 hPa 0,0 l/m 0 min 0 min 5 W/m 46,0 km/h (6 Bft)
09.01.2015 08:56 7,7 C 6,1 C 89 % 1018,5 hPa 0,0 l/m 0 min 0 min 5 W/m 52,3 km/h (7 Bft)
09.01.2015 08:58 7,7 C 6,1 C 89 % 1018,5 hPa 0,0 l/m 0 min 0 min 5 W/m 48,1 km/h (6 Bft)
09.01.2015 09:00 7,7 C 6,1 C 89 % 1018,4 hPa 0,0 l/m 0 min 0 min 5 W/m 52,3 km/h (7 Bft)
09.01.2015 09:02 7,7 C 6,1 C 89 % 1018,2 hPa 0,0 l/m 0 min 0 min 7 W/m 41,8 km/h (6 Bft)
09.01.2015 09:04 7,7 C 6,1 C 89 % 1018,3 hPa 0,0 l/m 0 min 0 min 7 W/m 60,7 km/h (7 Bft)
09.01.2015 09:06 7,7 C 6,1 C 89 % 1018,0 hPa 0,0 l/m 0 min 0 min 9 W/m 50,2 km/h (7 Bft)
09.01.2015 09:08 7,7 C 6,1 C 90 % 1018,2 hPa 0,0 l/m 0 min 0 min 11 W/m 52,3 km/h (7 Bft)
09.01.2015 09:10 7,7 C 6,1 C 90 % 1018,0 hPa 0,0 l/m 0 min 0 min 12 W/m 64,9 km/h (8 Bft)
09.01.2015 09:12 7,8 C 6,7 C 90 % 1018,2 hPa 0,0 l/m 0 min 0 min 15 W/m 46,0 km/h (6 Bft)
09.01.2015 09:14 7,8 C 6,7 C 90 % 1018,5 hPa 0,0 l/m 0 min 0 min 19 W/m 58,6 km/h (7 Bft)
09.01.2015 09:16 7,8 C 6,7 C 90 % 1018,2 hPa 0,0 l/m 0 min 0 min 22 W/m 52,3 km/h (7 Bft)
09.01.2015 09:18 7,8 C 6,7 C 90 % 1018,0 hPa 0,0 l/m 0 min 0 min 18 W/m 50,2 km/h (7 Bft)
09.01.2015 09:20 7,8 C 6,7 C 90 % 1018,0 hPa 0,0 l/m 0 min 0 min 17 W/m 48,1 km/h (6 Bft)
09.01.2015 09:22 7,8 C 6,7 C 90 % 1018,0 hPa 0,0 l/m 0 min 0 min 15 W/m 62,8 km/h (8 Bft)
09.01.2015 09:24 7,8 C 6,7 C 90 % 1018,2 hPa 0,0 l/m 0 min 0 min 15 W/m 64,9 km/h (8 Bft)
09.01.2015 09:26 7,9 C 6,7 C 90 % 1018,2 hPa 0,0 l/m 0 min 0 min 18 W/m 52,3 km/h (7 Bft)
09.01.2015 09:28 7,9 C 6,7 C 90 % 1018,3 hPa 0,0 l/m 0 min 0 min 22 W/m 58,6 km/h (7 Bft)
09.01.2015 09:30 7,9 C 6,7 C 90 % 1018,1 hPa 0,0 l/m 0 min 0 min 20 W/m 64,9 km/h (8 Bft)
09.01.2015 09:32 7,9 C 6,7 C 90 % 1018,3 hPa 0,0 l/m 0 min 0 min 23 W/m 52,3 km/h (7 Bft)
09.01.2015 09:34 7,9 C 6,7 C 90 % 1018,0 hPa 0,0 l/m 0 min 0 min 19 W/m 54,4 km/h (7 Bft)
09.01.2015 09:36 7,9 C 6,7 C 90 % 1018,1 hPa 0,0 l/m 0 min 0 min 20 W/m 54,4 km/h (7 Bft)
09.01.2015 09:38 8,0 C 6,7 C 90 % 1018,0 hPa 0,0 l/m 0 min 0 min 20 W/m 52,3 km/h (7 Bft)
09.01.2015 09:40 8,0 C 6,7 C 90 % 1018,2 hPa 0,0 l/m 0 min 0 min 21 W/m 60,7 km/h (7 Bft)
09.01.2015 09:42 8,0 C 6,7 C 90 % 1018,2 hPa 0,0 l/m 0 min 0 min 19 W/m 56,5 km/h (7 Bft)
09.01.2015 09:44 8,0 C 6,7 C 91 % 1018,0 hPa 0,0 l/m 0 min 0 min 19 W/m 69,0 km/h (8 Bft)
09.01.2015 09:46 8,0 C 6,7 C 91 % 1018,0 hPa 0,0 l/m 0 min 0 min 16 W/m 54,4 km/h (7 Bft)
09.01.2015 09:48 8,0 C 6,7 C 91 % 1018,0 hPa 0,0 l/m 0 min 0 min 18 W/m 58,6 km/h (7 Bft)
09.01.2015 09:50 8,0 C 6,7 C 91 % 1018,0 hPa 0,0 l/m 0 min 0 min 17 W/m 66,9 km/h (8 Bft)
09.01.2015 09:52 8,1 C 6,7 C 91 % 1018,0 hPa 0,0 l/m 0 min 0 min 15 W/m 64,9 km/h (8 Bft)
09.01.2015 09:54 8,1 C 6,7 C 91 % 1017,7 hPa 0,0 l/m 0 min 0 min 14 W/m 39,7 km/h (6 Bft)
09.01.2015 09:56 8,0 C 6,7 C 91 % 1017,6 hPa 0,0 l/m 0 min 0 min 15 W/m 46,0 km/h (6 Bft)
09.01.2015 09:58 8,0 C 6,7 C 91 % 1017,7 hPa 0,0 l/m 0 min 0 min 14 W/m 50,2 km/h (7 Bft)
09.01.2015 10:00 8,0 C 6,7 C 91 % 1017,6 hPa 0,0 l/m 0 min 0 min 15 W/m 48,1 km/h (6 Bft)
09.01.2015 10:02 8,0 C 6,7 C 91 % 1017,7 hPa 0,0 l/m 0 min 0 min 18 W/m 43,9 km/h (6 Bft)
09.01.2015 10:04 8,0 C 6,7 C 91 % 1017,6 hPa 0,0 l/m 0 min 0 min 17 W/m 52,3 km/h (7 Bft)
09.01.2015 10:06 8,0 C 6,7 C 91 % 1017,7 hPa 0,0 l/m 0 min 0 min 19 W/m 43,9 km/h (6 Bft)
09.01.2015 10:08 8,0 C 6,7 C 91 % 1017,7 hPa 0,0 l/m 0 min 0 min 19 W/m 56,5 km/h (7 Bft)
09.01.2015 10:10 8,1 C 6,7 C 91 % 1017,6 hPa 0,0 l/m 0 min 0 min 20 W/m 64,9 km/h (8 Bft)
09.01.2015 10:12 8,1 C 6,7 C 92 % 1017,6 hPa 0,0 l/m 0 min 0 min 24 W/m 52,3 km/h (7 Bft)
09.01.2015 10:14 8,1 C 6,7 C 92 % 1017,5 hPa 0,0 l/m 0 min 0 min 23 W/m 52,3 km/h (7 Bft)
09.01.2015 10:16 8,1 C 6,7 C 92 % 1017,4 hPa 0,0 l/m 0 min 0 min 21 W/m 62,8 km/h (8 Bft)
09.01.2015 10:18 8,1 C 6,7 C 92 % 1017,2 hPa 0,0 l/m 0 min 0 min 22 W/m 58,6 km/h (7 Bft)
09.01.2015 10:20 8,1 C 6,7 C 92 % 1017,3 hPa 0,0 l/m 0 min 0 min 21 W/m 46,0 km/h (6 Bft)
09.01.2015 10:22 8,1 C 6,7 C 92 % 1017,4 hPa 0,0 l/m 0 min 0 min 21 W/m 48,1 km/h (6 Bft)
09.01.2015 10:24 8,1 C 6,7 C 92 % 1017,3 hPa 0,0 l/m 0 min 0 min 25 W/m 52,3 km/h (7 Bft)
09.01.2015 10:26 8,2 C 6,7 C 92 % 1017,3 hPa 0,0 l/m 0 min 0 min 25 W/m 60,7 km/h (7 Bft)
09.01.2015 10:28 8,2 C 6,7 C 92 % 1017,3 hPa 0,0 l/m 0 min 0 min 24 W/m 48,1 km/h (6 Bft)
09.01.2015 10:30 8,2 C 6,7 C 92 % 1017,1 hPa 0,0 l/m 0 min 0 min 25 W/m 60,7 km/h (7 Bft)
09.01.2015 10:32 8,2 C 6,7 C 92 % 1017,0 hPa 0,0 l/m 0 min 0 min 26 W/m 60,7 km/h (7 Bft)
09.01.2015 10:34 8,2 C 6,7 C 92 % 1017,1 hPa 0,0 l/m 0 min 0 min 26 W/m 52,3 km/h (7 Bft)
09.01.2015 10:36 8,2 C 6,7 C 93 % 1017,2 hPa 0,0 l/m 0 min 0 min 27 W/m 50,2 km/h (7 Bft)
09.01.2015 10:38 8,2 C 6,7 C 93 % 1017,2 hPa 0,0 l/m 0 min 0 min 26 W/m 52,3 km/h (7 Bft)
09.01.2015 10:40 8,2 C 6,7 C 93 % 1017,2 hPa 0,0 l/m 0 min 0 min 28 W/m 60,7 km/h (7 Bft)
09.01.2015 10:42 8,2 C 6,7 C 93 % 1017,4 hPa 0,0 l/m 0 min 0 min 29 W/m 48,1 km/h (6 Bft)
09.01.2015 10:44 8,2 C 6,7 C 93 % 1017,2 hPa 0,0 l/m 0 min 0 min 30 W/m 50,2 km/h (7 Bft)
09.01.2015 10:46 8,2 C 6,7 C 93 % 1017,3 hPa 0,0 l/m 0 min 0 min 31 W/m 52,3 km/h (7 Bft)
09.01.2015 10:48 8,2 C 6,7 C 93 % 1017,2 hPa 0,0 l/m 0 min 0 min 41 W/m 50,2 km/h (7 Bft)
09.01.2015 10:50 8,2 C 6,7 C 93 % 1017,2 hPa 0,0 l/m 0 min 0 min 33 W/m 60,7 km/h (7 Bft)
09.01.2015 10:52 8,2 C 6,7 C 93 % 1017,3 hPa 0,0 l/m 0 min 0 min 35 W/m 60,7 km/h (7 Bft)
09.01.2015 10:54 8,2 C 6,7 C 93 % 1017,4 hPa 0,0 l/m 0 min 0 min 44 W/m 46,0 km/h (6 Bft)
09.01.2015 10:56 8,2 C 6,7 C 94 % 1017,5 hPa 0,0 l/m 0 min 0 min 33 W/m 46,0 km/h (6 Bft)
09.01.2015 10:58 8,2 C 6,7 C 94 % 1017,5 hPa 0,0 l/m 0 min 0 min 34 W/m 46,0 km/h (6 Bft)
09.01.2015 11:00 8,2 C 6,7 C 94 % 1017,4 hPa 0,0 l/m 0 min 0 min 41 W/m 56,5 km/h (7 Bft)
09.01.2015 11:02 8,2 C 6,7 C 94 % 1017,5 hPa 0,0 l/m 0 min 0 min 47 W/m 39,7 km/h (6 Bft)
09.01.2015 11:04 8,2 C 6,7 C 94 % 1017,5 hPa 0,0 l/m 0 min 0 min 43 W/m 41,8 km/h (6 Bft)
09.01.2015 11:06 8,2 C 6,7 C 94 % 1017,5 hPa 0,0 l/m 0 min 0 min 41 W/m 50,2 km/h (7 Bft)
09.01.2015 11:08 8,2 C 6,7 C 94 % 1017,4 hPa 0,0 l/m 0 min 0 min 41 W/m 54,4 km/h (7 Bft)
09.01.2015 11:10 8,2 C 6,7 C 94 % 1017,3 hPa 0,0 l/m 0 min 0 min 47 W/m 39,7 km/h (6 Bft)
09.01.2015 11:12 8,2 C 7,2 C 95 % 1017,2 hPa 0,0 l/m 0 min 0 min 55 W/m 37,7 km/h (5 Bft)
09.01.2015 11:14 8,3 C 7,2 C 95 % 1017,3 hPa 0,0 l/m 0 min 0 min 53 W/m 48,1 km/h (6 Bft)
09.01.2015 11:16 8,3 C 7,2 C 95 % 1017,2 hPa 0,0 l/m 0 min 0 min 52 W/m 50,2 km/h (7 Bft)
09.01.2015 11:18 8,3 C 7,2 C 95 % 1017,2 hPa 0,0 l/m 0 min 0 min 49 W/m 43,9 km/h (6 Bft)
09.01.2015 11:20 8,3 C 7,2 C 95 % 1017,2 hPa 0,0 l/m 0 min 0 min 54 W/m 58,6 km/h (7 Bft)
09.01.2015 11:22 8,3 C 7,2 C 95 % 1017,1 hPa 0,0 l/m 0 min 0 min 43 W/m 48,1 km/h (6 Bft)
09.01.2015 11:24 8,4 C 7,2 C 95 % 1017,1 hPa 0,0 l/m 0 min 0 min 36 W/m 48,1 km/h (6 Bft)
09.01.2015 11:26 8,4 C 7,2 C 95 % 1017,0 hPa 0,0 l/m 0 min 0 min 40 W/m 43,9 km/h (6 Bft)
09.01.2015 11:28 8,4 C 7,2 C 95 % 1016,8 hPa 0,0 l/m 0 min 0 min 39 W/m 46,0 km/h (6 Bft)
09.01.2015 11:30 8,4 C 7,2 C 95 % 1016,4 hPa 0,0 l/m 0 min 0 min 44 W/m 56,5 km/h (7 Bft)
09.01.2015 11:32 8,4 C 7,2 C 95 % 1016,6 hPa 0,0 l/m 0 min 0 min 43 W/m 62,8 km/h (8 Bft)
09.01.2015 11:34 8,4 C 7,2 C 95 % 1016,6 hPa 0,0 l/m 0 min 0 min 42 W/m 50,2 km/h (7 Bft)
09.01.2015 11:36 8,5 C 7,2 C 95 % 1016,7 hPa 0,0 l/m 0 min 0 min 46 W/m 58,6 km/h (7 Bft)
09.01.2015 11:38 8,5 C 7,2 C 95 % 1016,6 hPa 0,0 l/m 0 min 0 min 41 W/m 58,6 km/h (7 Bft)
09.01.2015 11:40 8,5 C 7,2 C 95 % 1016,6 hPa 0,0 l/m 0 min 0 min 39 W/m 52,3 km/h (7 Bft)
09.01.2015 11:42 8,6 C 7,2 C 95 % 1016,5 hPa 0,0 l/m 0 min 0 min 40 W/m 46,0 km/h (6 Bft)
09.01.2015 11:44 8,6 C 7,8 C 95 % 1016,4 hPa 0,0 l/m 0 min 0 min 44 W/m 50,2 km/h (7 Bft)
09.01.2015 11:46 8,6 C 7,8 C 95 % 1016,4 hPa 0,0 l/m 0 min 0 min 51 W/m 43,9 km/h (6 Bft)
09.01.2015 11:48 8,7 C 7,8 C 95 % 1016,4 hPa 0,0 l/m 0 min 0 min 65 W/m 52,3 km/h (7 Bft)
09.01.2015 11:50 8,7 C 7,8 C 95 % 1016,2 hPa 0,0 l/m 0 min 0 min 52 W/m 31,4 km/h (5 Bft)
09.01.2015 11:52 8,7 C 7,8 C 95 % 1016,1 hPa 0,0 l/m 0 min 0 min 32 W/m 50,2 km/h (7 Bft)
09.01.2015 11:54 8,7 C 7,8 C 95 % 1016,2 hPa 0,0 l/m 0 min 0 min 38 W/m 43,9 km/h (6 Bft)
09.01.2015 11:56 8,7 C 7,8 C 95 % 1015,9 hPa 0,0 l/m 0 min 0 min 58 W/m 46,0 km/h (6 Bft)
09.01.2015 11:58 8,8 C 7,8 C 95 % 1016,2 hPa 0,0 l/m 0 min 0 min 65 W/m 46,0 km/h (6 Bft)
09.01.2015 12:00 8,8 C 7,8 C 95 % 1016,4 hPa 0,0 l/m 0 min 0 min 78 W/m 52,3 km/h (7 Bft)
09.01.2015 12:03 8,9 C 7,8 C 95 % 1017,0 hPa 0,0 l/m 0 min 0 min 62 W/m 50,2 km/h (7 Bft)
09.01.2015 12:05 8,9 C 7,8 C 95 % 1016,6 hPa 0,0 l/m 0 min 0 min 39 W/m 50,2 km/h (7 Bft)
09.01.2015 12:06 8,9 C 7,8 C 95 % 1016,6 hPa 0,0 l/m 0 min 0 min 45 W/m 50,2 km/h (7 Bft)
09.01.2015 12:08 9,0 C 7,8 C 95 % 1016,7 hPa 0,0 l/m 0 min 0 min 50 W/m 46,0 km/h (6 Bft)
09.01.2015 12:10 9,0 C 7,8 C 95 % 1016,9 hPa 0,0 l/m 0 min 0 min 59 W/m 46,0 km/h (6 Bft)
09.01.2015 12:12 9,1 C 8,3 C 95 % 1016,9 hPa 0,0 l/m 0 min 0 min 51 W/m 46,0 km/h (6 Bft)
09.01.2015 12:14 9,1 C 8,3 C 95 % 1017,0 hPa 0,0 l/m 0 min 0 min 36 W/m 46,0 km/h (6 Bft)
09.01.2015 12:16 9,2 C 8,3 C 95 % 1017,2 hPa 0,0 l/m 0 min 0 min 47 W/m 56,5 km/h (7 Bft)
09.01.2015 12:18 9,2 C 8,3 C 95 % 1017,0 hPa 0,0 l/m 0 min 0 min 54 W/m 43,9 km/h (6 Bft)
09.01.2015 12:20 9,2 C 8,3 C 95 % 1017,0 hPa 0,0 l/m 0 min 0 min 47 W/m 46,0 km/h (6 Bft)
09.01.2015 12:22 9,3 C 8,3 C 95 % 1017,0 hPa 0,0 l/m 0 min 0 min 47 W/m 54,4 km/h (7 Bft)
09.01.2015 12:24 9,3 C 8,3 C 95 % 1017,1 hPa 0,0 l/m 0 min 0 min 50 W/m 60,7 km/h (7 Bft)
09.01.2015 12:26 9,3 C 8,3 C 95 % 1017,0 hPa 0,0 l/m 0 min 0 min 52 W/m 48,1 km/h (6 Bft)
09.01.2015 12:28 9,4 C 8,3 C 95 % 1016,8 hPa 0,0 l/m 0 min 0 min 57 W/m 50,2 km/h (7 Bft)
09.01.2015 12:30 9,4 C 8,3 C 95 % 1016,8 hPa 0,0 l/m 0 min 0 min 49 W/m 54,4 km/h (7 Bft)
09.01.2015 12:32 9,4 C 8,3 C 94 % 1016,8 hPa 0,0 l/m 0 min 0 min 35 W/m 58,6 km/h (7 Bft)
09.01.2015 12:34 9,4 C 8,3 C 94 % 1016,9 hPa 0,0 l/m 0 min 0 min 27 W/m 50,2 km/h (7 Bft)
09.01.2015 12:36 9,5 C 8,3 C 94 % 1016,9 hPa 0,0 l/m 0 min 0 min 30 W/m 37,7 km/h (5 Bft)
09.01.2015 12:38 9,5 C 8,3 C 94 % 1017,0 hPa 0,0 l/m 0 min 0 min 38 W/m 48,1 km/h (6 Bft)
09.01.2015 12:40 9,5 C 8,3 C 94 % 1016,9 hPa 0,0 l/m 0 min 0 min 40 W/m 50,2 km/h (7 Bft)
09.01.2015 12:42 9,6 C 8,3 C 94 % 1017,0 hPa 0,0 l/m 0 min 0 min 56 W/m 46,0 km/h (6 Bft)
09.01.2015 12:44 9,6 C 8,3 C 94 % 1017,0 hPa 0,0 l/m 0 min 0 min 60 W/m 54,4 km/h (7 Bft)
09.01.2015 12:46 9,6 C 8,3 C 94 % 1016,8 hPa 0,0 l/m 0 min 0 min 54 W/m 58,6 km/h (7 Bft)
09.01.2015 12:48 9,6 C 8,3 C 94 % 1016,9 hPa 0,0 l/m 0 min 0 min 54 W/m 43,9 km/h (6 Bft)
09.01.2015 12:50 9,7 C 8,3 C 94 % 1016,4 hPa 0,0 l/m 0 min 0 min 51 W/m 52,3 km/h (7 Bft)
09.01.2015 12:52 9,7 C 8,9 C 94 % 1016,4 hPa 0,0 l/m 0 min 0 min 60 W/m 50,2 km/h (7 Bft)
09.01.2015 12:54 9,7 C 8,9 C 94 % 1016,2 hPa 0,0 l/m 0 min 0 min 67 W/m 39,7 km/h (6 Bft)
09.01.2015 12:56 9,7 C 8,9 C 94 % 1015,9 hPa 0,0 l/m 0 min 0 min 73 W/m 50,2 km/h (7 Bft)
09.01.2015 12:58 9,7 C 8,9 C 94 % 1015,8 hPa 0,0 l/m 0 min 0 min 83 W/m 56,5 km/h (7 Bft)
09.01.2015 13:00 9,8 C 8,9 C 94 % 1015,7 hPa 0,0 l/m 0 min 0 min 86 W/m 41,8 km/h (6 Bft)
09.01.2015 13:02 9,8 C 8,9 C 94 % 1015,8 hPa 0,0 l/m 0 min 0 min 90 W/m 46,0 km/h (6 Bft)
09.01.2015 13:04 9,8 C 8,9 C 94 % 1015,9 hPa 0,0 l/m 0 min 0 min 86 W/m 58,6 km/h (7 Bft)
09.01.2015 13:06 9,9 C 8,9 C 94 % 1015,9 hPa 0,0 l/m 0 min 0 min 73 W/m 52,3 km/h (7 Bft)
09.01.2015 13:08 9,9 C 8,9 C 94 % 1015,8 hPa 0,0 l/m 0 min 0 min 79 W/m 54,4 km/h (7 Bft)
09.01.2015 13:10 9,9 C 8,9 C 94 % 1015,7 hPa 0,0 l/m 0 min 0 min 64 W/m 48,1 km/h (6 Bft)
09.01.2015 13:12 10,0 C 8,9 C 93 % 1015,6 hPa 0,0 l/m 0 min 0 min 67 W/m 66,9 km/h (8 Bft)
09.01.2015 13:14 10,1 C 8,9 C 93 % 1015,6 hPa 0,0 l/m 0 min 0 min 79 W/m 54,4 km/h (7 Bft)
09.01.2015 13:16 10,1 C 8,9 C 93 % 1015,5 hPa 0,0 l/m 0 min 0 min 92 W/m 66,9 km/h (8 Bft)
09.01.2015 13:18 10,2 C 8,9 C 93 % 1015,7 hPa 0,0 l/m 0 min 0 min 85 W/m 56,5 km/h (7 Bft)
09.01.2015 13:20 10,2 C 8,9 C 93 % 1015,8 hPa 0,0 l/m 0 min 0 min 72 W/m 46,0 km/h (6 Bft)
09.01.2015 13:22 10,2 C 9,4 C 93 % 1015,9 hPa 0,0 l/m 0 min 0 min 77 W/m 46,0 km/h (6 Bft)
09.01.2015 13:24 10,2 C 9,4 C 93 % 1016,2 hPa 0,0 l/m 0 min 0 min 83 W/m 50,2 km/h (7 Bft)
09.01.2015 13:26 10,2 C 9,4 C 93 % 1016,4 hPa 0,0 l/m 0 min 0 min 77 W/m 37,7 km/h (5 Bft)
09.01.2015 13:28 10,3 C 9,4 C 92 % 1016,4 hPa 0,0 l/m 0 min 0 min 64 W/m 33,5 km/h (5 Bft)
09.01.2015 13:30 10,3 C 8,9 C 92 % 1016,5 hPa 0,0 l/m 0 min 0 min 44 W/m 43,9 km/h (6 Bft)
09.01.2015 13:32 10,3 C 8,9 C 92 % 1016,6 hPa 0,0 l/m 0 min 0 min 45 W/m 35,6 km/h (5 Bft)
09.01.2015 13:34 10,3 C 9,4 C 92 % 1016,6 hPa 0,0 l/m 0 min 0 min 59 W/m 29,3 km/h (5 Bft)
09.01.2015 13:36 10,3 C 9,4 C 92 % 1016,7 hPa 0,0 l/m 0 min 0 min 61 W/m 48,1 km/h (6 Bft)
09.01.2015 13:38 10,3 C 8,9 C 92 % 1016,5 hPa 0,0 l/m 0 min 0 min 44 W/m 25,1 km/h (4 Bft)
09.01.2015 13:40 10,4 C 8,9 C 92 % 1016,7 hPa 0,0 l/m 0 min 0 min 40 W/m 54,4 km/h (7 Bft)
09.01.2015 13:42 10,4 C 9,4 C 92 % 1016,6 hPa 0,0 l/m 0 min 0 min 57 W/m 29,3 km/h (5 Bft)
09.01.2015 13:44 10,4 C 9,4 C 92 % 1016,4 hPa 0,0 l/m 0 min 0 min 57 W/m 39,7 km/h (6 Bft)
09.01.2015 13:46 10,4 C 9,4 C 92 % 1016,5 hPa 0,0 l/m 0 min 0 min 46 W/m 43,9 km/h (6 Bft)
09.01.2015 13:48 10,4 C 9,4 C 92 % 1016,3 hPa 0,0 l/m 0 min 0 min 46 W/m 37,7 km/h (5 Bft)
09.01.2015 13:50 10,4 C 9,4 C 92 % 1016,4 hPa 0,0 l/m 0 min 0 min 48 W/m 27,2 km/h (4 Bft)
09.01.2015 13:52 10,4 C 9,4 C 92 % 1016,3 hPa 0,0 l/m 0 min 0 min 69 W/m 41,8 km/h (6 Bft)
09.01.2015 13:54 10,5 C 9,4 C 92 % 1016,2 hPa 0,0 l/m 0 min 0 min 69 W/m 41,8 km/h (6 Bft)
09.01.2015 13:56 10,5 C 9,4 C 92 % 1016,3 hPa 0,0 l/m 0 min 0 min 49 W/m 41,8 km/h (6 Bft)
09.01.2015 13:58 10,5 C 9,4 C 92 % 1016,5 hPa 0,0 l/m 0 min 0 min 40 W/m 39,7 km/h (6 Bft)
09.01.2015 14:00 10,5 C 9,4 C 92 % 1016,5 hPa 0,0 l/m 0 min 0 min 57 W/m 46,0 km/h (6 Bft)
09.01.2015 14:02 10,5 C 9,4 C 92 % 1016,7 hPa 0,0 l/m 0 min 0 min 61 W/m 46,0 km/h (6 Bft)
09.01.2015 14:04 10,6 C 9,4 C 92 % 1016,7 hPa 0,0 l/m 0 min 0 min 62 W/m 39,7 km/h (6 Bft)
09.01.2015 14:06 10,6 C 9,4 C 92 % 1016,7 hPa 0,0 l/m 0 min 0 min 57 W/m 35,6 km/h (5 Bft)
09.01.2015 14:08 10,6 C 9,4 C 92 % 1016,6 hPa 0,0 l/m 0 min 0 min 61 W/m 48,1 km/h (6 Bft)
09.01.2015 14:10 10,6 C 9,4 C 92 % 1016,6 hPa 0,0 l/m 0 min 0 min 62 W/m 31,4 km/h (5 Bft)
09.01.2015 14:12 10,6 C 9,4 C 92 % 1016,6 hPa 0,0 l/m 0 min 0 min 59 W/m 39,7 km/h (6 Bft)
09.01.2015 14:14 10,6 C 9,4 C 91 % 1016,5 hPa 0,0 l/m 0 min 0 min 48 W/m 37,7 km/h (5 Bft)
09.01.2015 14:16 10,7 C 9,4 C 91 % 1016,4 hPa 0,0 l/m 0 min 0 min 53 W/m 37,7 km/h (5 Bft)
09.01.2015 14:18 10,7 C 9,4 C 91 % 1016,3 hPa 0,0 l/m 0 min 0 min 53 W/m 37,7 km/h (5 Bft)
09.01.2015 14:20 10,7 C 9,4 C 91 % 1016,4 hPa 0,0 l/m 0 min 0 min 60 W/m 43,9 km/h (6 Bft)
09.01.2015 14:22 10,7 C 9,4 C 91 % 1016,4 hPa 0,0 l/m 0 min 0 min 50 W/m 39,7 km/h (6 Bft)
09.01.2015 14:24 10,7 C 9,4 C 91 % 1016,4 hPa 0,0 l/m 0 min 0 min 46 W/m 48,1 km/h (6 Bft)
09.01.2015 14:26 10,7 C 9,4 C 91 % 1016,4 hPa 0,0 l/m 0 min 0 min 37 W/m 43,9 km/h (6 Bft)
09.01.2015 14:28 10,7 C 9,4 C 91 % 1016,3 hPa 0,0 l/m 0 min 0 min 32 W/m 41,8 km/h (6 Bft)
09.01.2015 14:30 10,8 C 9,4 C 91 % 1016,3 hPa 0,0 l/m 0 min 0 min 43 W/m 35,6 km/h (5 Bft)
09.01.2015 14:32 10,8 C 9,4 C 91 % 1016,1 hPa 0,0 l/m 0 min 0 min 47 W/m 41,8 km/h (6 Bft)
09.01.2015 14:34 10,8 C 9,4 C 91 % 1015,8 hPa 0,0 l/m 0 min 0 min 48 W/m 33,5 km/h (5 Bft)
09.01.2015 14:36 10,8 C 9,4 C 91 % 1015,8 hPa 0,0 l/m 0 min 0 min 48 W/m 35,6 km/h (5 Bft)
09.01.2015 14:38 10,8 C 9,4 C 91 % 1015,8 hPa 0,0 l/m 0 min 0 min 47 W/m 37,7 km/h (5 Bft)
09.01.2015 14:40 10,8 C 9,4 C 91 % 1015,8 hPa 0,0 l/m 0 min 0 min 42 W/m 41,8 km/h (6 Bft)
09.01.2015 14:42 10,8 C 9,4 C 90 % 1015,7 hPa 0,0 l/m 0 min 0 min 37 W/m 39,7 km/h (6 Bft)
09.01.2015 14:44 10,8 C 9,4 C 90 % 1015,8 hPa 0,0 l/m 0 min 0 min 38 W/m 41,8 km/h (6 Bft)
09.01.2015 14:46 10,8 C 9,4 C 90 % 1015,9 hPa 0,0 l/m 0 min 0 min 45 W/m 43,9 km/h (6 Bft)
09.01.2015 14:48 10,8 C 9,4 C 90 % 1015,8 hPa 0,0 l/m 0 min 0 min 44 W/m 46,0 km/h (6 Bft)
09.01.2015 14:50 10,8 C 9,4 C 90 % 1015,9 hPa 0,0 l/m 0 min 0 min 39 W/m 31,4 km/h (5 Bft)
09.01.2015 14:52 10,8 C 9,4 C 90 % 1015,8 hPa 0,0 l/m 0 min 0 min 38 W/m 43,9 km/h (6 Bft)
09.01.2015 14:54 10,8 C 9,4 C 90 % 1015,8 hPa 0,0 l/m 0 min 0 min 44 W/m 52,3 km/h (7 Bft)
09.01.2015 14:56 10,8 C 9,4 C 90 % 1015,8 hPa 0,0 l/m 0 min 0 min 52 W/m 43,9 km/h (6 Bft)
09.01.2015 14:58 10,9 C 9,4 C 90 % 1015,8 hPa 0,0 l/m 0 min 0 min 51 W/m 37,7 km/h (5 Bft)
09.01.2015 15:00 10,9 C 9,4 C 89 % 1015,9 hPa 0,0 l/m 0 min 0 min 42 W/m 46,0 km/h (6 Bft)
09.01.2015 15:02 10,9 C 9,4 C 89 % 1015,8 hPa 0,0 l/m 0 min 0 min 40 W/m 41,8 km/h (6 Bft)
09.01.2015 15:04 10,9 C 9,4 C 89 % 1015,8 hPa 0,0 l/m 0 min 0 min 40 W/m 43,9 km/h (6 Bft)
09.01.2015 15:06 10,9 C 9,4 C 89 % 1015,8 hPa 0,0 l/m 0 min 0 min 41 W/m 33,5 km/h (5 Bft)
09.01.2015 15:08 10,9 C 9,4 C 89 % 1015,8 hPa 0,0 l/m 0 min 0 min 37 W/m 43,9 km/h (6 Bft)
09.01.2015 15:10 11,0 C 9,4 C 89 % 1015,8 hPa 0,0 l/m 0 min 0 min 35 W/m 50,2 km/h (7 Bft)
09.01.2015 15:12 11,0 C 9,4 C 89 % 1015,8 hPa 0,0 l/m 0 min 0 min 33 W/m 43,9 km/h (6 Bft)
09.01.2015 15:14 11,0 C 9,4 C 89 % 1015,9 hPa 0,0 l/m 0 min 0 min 29 W/m 37,7 km/h (5 Bft)
09.01.2015 15:16 11,0 C 9,4 C 89 % 1015,8 hPa 0,0 l/m 0 min 0 min 26 W/m 43,9 km/h (6 Bft)
09.01.2015 15:18 11,0 C 9,4 C 89 % 1015,6 hPa 0,0 l/m 0 min 0 min 24 W/m 35,6 km/h (5 Bft)
09.01.2015 15:20 11,0 C 9,4 C 89 % 1015,7 hPa 0,0 l/m 0 min 0 min 23 W/m 41,8 km/h (6 Bft)
09.01.2015 15:22 11,0 C 9,4 C 89 % 1015,7 hPa 0,0 l/m 0 min 0 min 22 W/m 39,7 km/h (6 Bft)
09.01.2015 15:24 11,0 C 9,4 C 89 % 1015,6 hPa 0,0 l/m 0 min 0 min 21 W/m 41,8 km/h (6 Bft)
09.01.2015 15:26 11,0 C 9,4 C 89 % 1015,6 hPa 0,0 l/m 0 min 0 min 20 W/m 48,1 km/h (6 Bft)
09.01.2015 15:28 11,0 C 9,4 C 89 % 1015,8 hPa 0,0 l/m 0 min 0 min 18 W/m 43,9 km/h (6 Bft)
09.01.2015 15:30 11,0 C 9,4 C 89 % 1015,8 hPa 0,0 l/m 0 min 0 min 16 W/m 43,9 km/h (6 Bft)
09.01.2015 15:32 11,0 C 9,4 C 89 % 1015,8 hPa 0,0 l/m 0 min 0 min 16 W/m 39,7 km/h (6 Bft)
09.01.2015 15:34 11,0 C 9,4 C 88 % 1015,7 hPa 0,0 l/m 0 min 0 min 13 W/m 46,0 km/h (6 Bft)
09.01.2015 15:36 11,0 C 9,4 C 88 % 1015,8 hPa 0,0 l/m 0 min 0 min 12 W/m 43,9 km/h (6 Bft)
09.01.2015 15:38 11,0 C 9,4 C 88 % 1015,8 hPa 0,0 l/m 0 min 0 min 12 W/m 37,7 km/h (5 Bft)
09.01.2015 15:40 11,0 C 9,4 C 88 % 1015,8 hPa 0,0 l/m 0 min 0 min 12 W/m 39,7 km/h (6 Bft)
09.01.2015 15:42 11,1 C 9,4 C 88 % 1015,8 hPa 0,0 l/m 0 min 0 min 12 W/m 39,7 km/h (6 Bft)
09.01.2015 15:44 11,1 C 9,4 C 88 % 1015,8 hPa 0,0 l/m 0 min 0 min 13 W/m 41,8 km/h (6 Bft)
09.01.2015 15:46 11,1 C 9,4 C 88 % 1015,9 hPa 0,0 l/m 0 min 0 min 15 W/m 46,0 km/h (6 Bft)
09.01.2015 15:48 11,1 C 9,4 C 88 % 1016,0 hPa 0,0 l/m 0 min 0 min 18 W/m 37,7 km/h (5 Bft)
09.01.2015 15:50 11,1 C 9,4 C 88 % 1016,2 hPa 0,0 l/m 0 min 0 min 15 W/m 31,4 km/h (5 Bft)
09.01.2015 15:52 11,1 C 9,4 C 88 % 1016,4 hPa 0,0 l/m 0 min 0 min 13 W/m 39,7 km/h (6 Bft)
09.01.2015 15:54 11,1 C 9,4 C 88 % 1016,7 hPa 0,0 l/m 0 min 0 min 14 W/m 48,1 km/h (6 Bft)
09.01.2015 15:56 11,1 C 9,4 C 88 % 1016,9 hPa 0,0 l/m 0 min 0 min 14 W/m 33,5 km/h (5 Bft)
09.01.2015 15:58 11,1 C 9,4 C 88 % 1017,1 hPa 0,0 l/m 0 min 0 min 14 W/m 31,4 km/h (5 Bft)
09.01.2015 16:00 11,1 C 9,4 C 88 % 1017,2 hPa 0,0 l/m 0 min 0 min 13 W/m 31,4 km/h (5 Bft)
09.01.2015 16:02 11,1 C 9,4 C 88 % 1017,2 hPa 0,0 l/m 0 min 0 min 10 W/m 37,7 km/h (5 Bft)
09.01.2015 16:04 11,1 C 9,4 C 88 % 1017,3 hPa 0,0 l/m 0 min 0 min 7 W/m 43,9 km/h (6 Bft)
09.01.2015 16:06 11,1 C 9,4 C 88 % 1017,3 hPa 0,0 l/m 0 min 0 min 5 W/m 33,5 km/h (5 Bft)
09.01.2015 16:08 11,1 C 9,4 C 88 % 1017,4 hPa 0,0 l/m 0 min 0 min 5 W/m 27,2 km/h (4 Bft)
09.01.2015 16:10 11,1 C 9,4 C 88 % 1017,4 hPa 0,0 l/m 0 min 0 min 5 W/m 25,1 km/h (4 Bft)
09.01.2015 16:12 11,1 C 9,4 C 88 % 1017,3 hPa 0,0 l/m 0 min 0 min 5 W/m 23,0 km/h (4 Bft)
09.01.2015 16:14 11,1 C 9,4 C 88 % 1017,3 hPa 0,0 l/m 0 min 0 min 5 W/m 25,1 km/h (4 Bft)
09.01.2015 16:16 11,0 C 9,4 C 88 % 1017,4 hPa 0,0 l/m 0 min 0 min 5 W/m 31,4 km/h (5 Bft)
09.01.2015 16:18 11,1 C 9,4 C 88 % 1017,5 hPa 0,0 l/m 0 min 0 min 5 W/m 31,4 km/h (5 Bft)
09.01.2015 16:20 11,0 C 9,4 C 88 % 1017,6 hPa 0,0 l/m 0 min 0 min 5 W/m 29,3 km/h (5 Bft)
09.01.2015 16:22 11,0 C 9,4 C 88 % 1017,8 hPa 0,0 l/m 0 min 0 min 5 W/m 27,2 km/h (4 Bft)
09.01.2015 16:24 11,0 C 9,4 C 88 % 1017,8 hPa 0,0 l/m 0 min 0 min 0 W/m 31,4 km/h (5 Bft)
09.01.2015 16:26 11,0 C 9,4 C 88 % 1017,9 hPa 0,0 l/m 0 min 0 min 0 W/m 25,1 km/h (4 Bft)
09.01.2015 16:28 11,0 C 9,4 C 88 % 1018,0 hPa 0,0 l/m 0 min 0 min 0 W/m 20,9 km/h (4 Bft)
09.01.2015 16:30 11,0 C 9,4 C 88 % 1017,9 hPa 0,0 l/m 0 min 0 min 0 W/m 18,8 km/h (3 Bft)
09.01.2015 16:32 10,9 C 9,4 C 88 % 1018,2 hPa 0,0 l/m 0 min 0 min 0 W/m 25,1 km/h (4 Bft)
09.01.2015 16:34 10,9 C 9,4 C 87 % 1018,2 hPa 0,0 l/m 0 min 0 min 0 W/m 29,3 km/h (5 Bft)
09.01.2015 16:36 10,9 C 9,4 C 87 % 1018,1 hPa 0,0 l/m 0 min 0 min 0 W/m 27,2 km/h (4 Bft)
09.01.2015 16:38 10,9 C 9,4 C 87 % 1018,2 hPa 0,0 l/m 0 min 0 min 0 W/m 37,7 km/h (5 Bft)
09.01.2015 16:40 10,9 C 9,4 C 88 % 1018,2 hPa 0,0 l/m 0 min 0 min 0 W/m 18,8 km/h (3 Bft)
09.01.2015 16:42 10,9 C 9,4 C 87 % 1018,1 hPa 0,0 l/m 0 min 0 min 0 W/m 25,1 km/h (4 Bft)
09.01.2015 16:44 10,9 C 9,4 C 87 % 1018,1 hPa 0,0 l/m 0 min 0 min 0 W/m 20,9 km/h (4 Bft)
09.01.2015 16:46 10,9 C 8,9 C 87 % 1018,1 hPa 0,0 l/m 0 min 0 min 0 W/m 27,2 km/h (4 Bft)
09.01.2015 16:48 10,9 C 9,4 C 87 % 1017,9 hPa 0,0 l/m 0 min 0 min 0 W/m 27,2 km/h (4 Bft)
09.01.2015 16:50 10,9 C 8,9 C 87 % 1018,0 hPa 0,0 l/m 0 min 0 min 0 W/m 16,7 km/h (3 Bft)
09.01.2015 16:52 10,9 C 8,9 C 87 % 1017,7 hPa 0,0 l/m 0 min 0 min 0 W/m 23,0 km/h (4 Bft)
09.01.2015 16:54 10,9 C 8,9 C 87 % 1017,7 hPa 0,0 l/m 0 min 0 min 0 W/m 23,0 km/h (4 Bft)
09.01.2015 16:56 10,9 C 9,4 C 88 % 1017,7 hPa 0,0 l/m 0 min 0 min 0 W/m 29,3 km/h (5 Bft)
09.01.2015 16:58 10,9 C 9,4 C 87 % 1017,9 hPa 0,0 l/m 0 min 0 min 0 W/m 18,8 km/h (3 Bft)
09.01.2015 17:00 10,9 C 8,9 C 87 % 1017,7 hPa 0,0 l/m 0 min 0 min 0 W/m 18,8 km/h (3 Bft)
09.01.2015 17:02 10,9 C 8,9 C 87 % 1017,8 hPa 0,0 l/m 0 min 0 min 0 W/m 18,8 km/h (3 Bft)
09.01.2015 17:04 10,9 C 8,9 C 87 % 1017,9 hPa 0,0 l/m 0 min 0 min 0 W/m 20,9 km/h (4 Bft)
09.01.2015 17:06 10,9 C 8,9 C 87 % 1017,9 hPa 0,0 l/m 0 min 0 min 0 W/m 23,0 km/h (4 Bft)
09.01.2015 17:08 10,9 C 8,9 C 87 % 1017,8 hPa 0,0 l/m 0 min 0 min 0 W/m 20,9 km/h (4 Bft)
09.01.2015 17:10 10,9 C 8,9 C 88 % 1017,8 hPa 0,0 l/m 0 min 0 min 0 W/m 18,8 km/h (3 Bft)
09.01.2015 17:12 10,8 C 8,9 C 88 % 1017,9 hPa 0,0 l/m 0 min 0 min 0 W/m 20,9 km/h (4 Bft)
09.01.2015 17:14 10,8 C 8,9 C 88 % 1017,8 hPa 0,0 l/m 0 min 0 min 0 W/m 25,1 km/h (4 Bft)
09.01.2015 17:16 10,8 C 8,9 C 88 % 1017,7 hPa 0,0 l/m 0 min 0 min 0 W/m 31,4 km/h (5 Bft)
09.01.2015 17:18 10,8 C 8,9 C 88 % 1017,6 hPa 0,0 l/m 0 min 0 min 0 W/m 31,4 km/h (5 Bft)
09.01.2015 17:20 10,8 C 8,9 C 87 % 1017,5 hPa 0,0 l/m 0 min 0 min 0 W/m 23,0 km/h (4 Bft)
09.01.2015 17:22 10,8 C 8,9 C 87 % 1017,6 hPa 0,0 l/m 0 min 0 min 0 W/m 23,0 km/h (4 Bft)
09.01.2015 17:24 10,8 C 8,9 C 87 % 1017,5 hPa 0,0 l/m 0 min 0 min 0 W/m 23,0 km/h (4 Bft)
09.01.2015 17:26 10,8 C 8,9 C 87 % 1017,6 hPa 0,0 l/m 0 min 0 min 0 W/m 23,0 km/h (4 Bft)
09.01.2015 17:28 10,8 C 8,9 C 87 % 1017,7 hPa 0,0 l/m 0 min 0 min 0 W/m 25,1 km/h (4 Bft)
09.01.2015 17:30 10,8 C 8,9 C 87 % 1017,8 hPa 0,0 l/m 0 min 0 min 0 W/m 14,6 km/h (3 Bft)
09.01.2015 17:32 10,8 C 8,9 C 87 % 1017,8 hPa 0,0 l/m 0 min 0 min 0 W/m 20,9 km/h (4 Bft)
09.01.2015 17:34 10,8 C 8,9 C 87 % 1017,9 hPa 0,0 l/m 0 min 0 min 0 W/m 39,7 km/h (6 Bft)
09.01.2015 17:36 10,7 C 8,9 C 86 % 1017,5 hPa 0,0 l/m 0 min 0 min 0 W/m 62,8 km/h (8 Bft)
09.01.2015 17:38 10,8 C 8,9 C 84 % 1017,8 hPa 0,0 l/m 0 min 0 min 0 W/m 46,0 km/h (6 Bft)
09.01.2015 17:40 10,8 C 8,9 C 83 % 1017,8 hPa 0,0 l/m 0 min 2 min 0 W/m 31,4 km/h (5 Bft)
09.01.2015 17:42 10,9 C 8,9 C 83 % 1017,8 hPa 0,0 l/m 0 min 2 min 0 W/m 35,6 km/h (5 Bft)
09.01.2015 17:44 10,9 C 7,8 C 82 % 1017,9 hPa 0,0 l/m 0 min 2 min 0 W/m 54,4 km/h (7 Bft)
09.01.2015 17:46 10,8 C 7,8 C 81 % 1017,6 hPa 0,0 l/m 0 min 2 min 0 W/m 33,5 km/h (5 Bft)
09.01.2015 17:48 10,8 C 7,8 C 81 % 1017,6 hPa 0,0 l/m 0 min 2 min 0 W/m 27,2 km/h (4 Bft)
09.01.2015 17:50 10,8 C 7,2 C 81 % 1017,6 hPa 0,0 l/m 0 min 2 min 0 W/m 43,9 km/h (6 Bft)
09.01.2015 17:52 10,7 C 7,2 C 81 % 1017,4 hPa 0,2 l/m 0 min 2 min 0 W/m 58,6 km/h (7 Bft)
09.01.2015 17:54 10,6 C 7,2 C 80 % 1017,5 hPa 0,0 l/m 0 min 2 min 0 W/m 48,1 km/h (6 Bft)
09.01.2015 17:56 10,5 C 6,7 C 81 % 1017,4 hPa 0,0 l/m 0 min 2 min 0 W/m 39,7 km/h (6 Bft)
09.01.2015 17:58 10,3 C 6,7 C 81 % 1017,4 hPa 0,0 l/m 0 min 2 min 0 W/m 46,0 km/h (6 Bft)
09.01.2015 18:00 10,2 C 6,7 C 82 % 1017,3 hPa 0,2 l/m 0 min 2 min 0 W/m 39,7 km/h (6 Bft)
09.01.2015 18:02 10,1 C 6,7 C 82 % 1017,3 hPa 0,0 l/m 0 min 2 min 0 W/m 33,5 km/h (5 Bft)
09.01.2015 18:05 9,9 C 6,7 C 83 % 1017,3 hPa 0,0 l/m 0 min 2 min 0 W/m 33,5 km/h (5 Bft)
09.01.2015 18:07 9,8 C 6,7 C 84 % 1017,2 hPa 0,0 l/m 0 min 2 min 0 W/m 33,5 km/h (5 Bft)
09.01.2015 18:08 9,8 C 6,7 C 84 % 1017,2 hPa 0,2 l/m 0 min 1 min 0 W/m 33,5 km/h (5 Bft)
09.01.2015 18:10 9,7 C 6,7 C 85 % 1017,3 hPa 0,0 l/m 0 min 2 min 0 W/m 18,8 km/h (3 Bft)
09.01.2015 18:12 9,6 C 6,1 C 85 % 1017,2 hPa 0,0 l/m 0 min 2 min 0 W/m 25,1 km/h (4 Bft)
09.01.2015 18:14 9,5 C 6,1 C 85 % 1017,1 hPa 0,2 l/m 0 min 2 min 0 W/m 23,0 km/h (4 Bft)
09.01.2015 18:16 9,4 C 6,1 C 86 % 1017,0 hPa 0,0 l/m 0 min 2 min 0 W/m 18,8 km/h (3 Bft)
09.01.2015 18:18 9,3 C 6,1 C 86 % 1017,1 hPa 0,0 l/m 0 min 2 min 0 W/m 16,7 km/h (3 Bft)
09.01.2015 18:20 9,3 C 6,1 C 86 % 1017,1 hPa 0,0 l/m 0 min 2 min 0 W/m 12,6 km/h (3 Bft)
09.01.2015 18:22 9,2 C 6,1 C 87 % 1016,9 hPa 0,2 l/m 0 min 2 min 0 W/m 23,0 km/h (4 Bft)
09.01.2015 18:24 9,1 C 6,1 C 87 % 1016,9 hPa 0,0 l/m 0 min 2 min 0 W/m 12,6 km/h (3 Bft)
09.01.2015 18:26 9,0 C 6,1 C 87 % 1016,9 hPa 0,0 l/m 0 min 2 min 0 W/m 10,5 km/h (2 Bft)
09.01.2015 18:28 8,9 C 6,1 C 87 % 1016,9 hPa 0,0 l/m 0 min 2 min 0 W/m 25,1 km/h (4 Bft)
09.01.2015 18:30 8,8 C 6,1 C 87 % 1017,0 hPa 0,2 l/m 0 min 0 min 0 W/m 14,6 km/h (3 Bft)
09.01.2015 18:32 8,8 C 6,1 C 88 % 1017,1 hPa 0,0 l/m 0 min 2 min 0 W/m 14,6 km/h (3 Bft)
09.01.2015 18:34 8,7 C 6,1 C 88 % 1017,2 hPa 0,0 l/m 0 min 2 min 0 W/m 14,6 km/h (3 Bft)
09.01.2015 18:36 8,7 C 6,1 C 88 % 1017,2 hPa 0,0 l/m 0 min 2 min 0 W/m 14,6 km/h (3 Bft)
09.01.2015 18:38 8,6 C 6,1 C 88 % 1017,0 hPa 0,0 l/m 0 min 2 min 0 W/m 16,7 km/h (3 Bft)
09.01.2015 18:40 8,6 C 6,1 C 89 % 1017,0 hPa 0,0 l/m 0 min 2 min 0 W/m 10,5 km/h (2 Bft)
09.01.2015 18:42 8,6 C 6,1 C 89 % 1016,9 hPa 0,2 l/m 0 min 2 min 0 W/m 12,6 km/h (3 Bft)
09.01.2015 18:44 8,5 C 6,1 C 89 % 1016,7 hPa 0,2 l/m 0 min 2 min 0 W/m 12,6 km/h (3 Bft)
09.01.2015 18:46 8,4 C 6,1 C 89 % 1016,5 hPa 0,0 l/m 0 min 2 min 0 W/m 8,4 km/h (2 Bft)
09.01.2015 18:48 8,4 C 6,1 C 89 % 1016,4 hPa 0,2 l/m 0 min 2 min 0 W/m 10,5 km/h (2 Bft)
09.01.2015 18:50 8,4 C 6,1 C 90 % 1016,2 hPa 0,0 l/m 0 min 2 min 0 W/m 8,4 km/h (2 Bft)
09.01.2015 18:52 8,4 C 6,1 C 90 % 1016,2 hPa 0,2 l/m 0 min 2 min 0 W/m 6,3 km/h (2 Bft)
09.01.2015 18:54 8,3 C 6,1 C 90 % 1016,1 hPa 0,2 l/m 0 min 2 min 0 W/m 6,3 km/h (2 Bft)
09.01.2015 18:56 8,3 C 6,1 C 90 % 1016,1 hPa 0,0 l/m 0 min 2 min 0 W/m 4,2 km/h (1 Bft)
09.01.2015 18:58 8,3 C 6,1 C 90 % 1016,1 hPa 0,2 l/m 0 min 2 min 0 W/m 4,2 km/h (1 Bft)
09.01.2015 19:00 8,3 C 6,1 C 90 % 1016,1 hPa 0,0 l/m 0 min 2 min 0 W/m 6,3 km/h (2 Bft)
09.01.2015 19:02 8,2 C 6,1 C 90 % 1015,9 hPa 0,2 l/m 0 min 2 min 0 W/m 6,3 km/h (2 Bft)
09.01.2015 19:04 8,2 C 6,1 C 90 % 1015,8 hPa 0,0 l/m 0 min 2 min 0 W/m 8,4 km/h (2 Bft)
09.01.2015 19:06 8,2 C 6,1 C 91 % 1015,9 hPa 0,2 l/m 0 min 2 min 0 W/m 8,4 km/h (2 Bft)
09.01.2015 19:08 8,2 C 6,1 C 91 % 1015,8 hPa 0,0 l/m 0 min 2 min 0 W/m 8,4 km/h (2 Bft)
09.01.2015 19:10 8,2 C 6,1 C 91 % 1015,8 hPa 0,2 l/m 0 min 2 min 0 W/m 10,5 km/h (2 Bft)
09.01.2015 19:12 8,1 C 6,1 C 91 % 1015,8 hPa 0,0 l/m 0 min 2 min 0 W/m 8,4 km/h (2 Bft)
09.01.2015 19:14 8,1 C 6,1 C 91 % 1015,8 hPa 0,2 l/m 0 min 2 min 0 W/m 8,4 km/h (2 Bft)
09.01.2015 19:16 8,1 C 6,1 C 91 % 1015,8 hPa 0,0 l/m 0 min 2 min 0 W/m 4,2 km/h (1 Bft)
09.01.2015 19:18 8,1 C 6,1 C 91 % 1015,7 hPa 0,0 l/m 0 min 2 min 0 W/m 6,3 km/h (2 Bft)
09.01.2015 19:20 8,1 C 6,1 C 91 % 1015,8 hPa 0,2 l/m 0 min 2 min 0 W/m 8,4 km/h (2 Bft)
09.01.2015 19:22 8,1 C 6,1 C 92 % 1015,8 hPa 0,0 l/m 0 min 2 min 0 W/m 6,3 km/h (2 Bft)
09.01.2015 19:24 8,1 C 6,1 C 92 % 1015,7 hPa 0,2 l/m 0 min 2 min 0 W/m 8,4 km/h (2 Bft)
09.01.2015 19:26 8,1 C 6,1 C 92 % 1015,7 hPa 0,0 l/m 0 min 2 min 0 W/m 6,3 km/h (2 Bft)
09.01.2015 19:28 8,1 C 6,1 C 92 % 1015,6 hPa 0,0 l/m 0 min 2 min 0 W/m 8,4 km/h (2 Bft)
09.01.2015 19:30 8,0 C 6,1 C 92 % 1015,3 hPa 0,2 l/m 0 min 2 min 0 W/m 12,6 km/h (3 Bft)
09.01.2015 19:32 8,0 C 6,1 C 92 % 1015,2 hPa 0,0 l/m 0 min 0 min 0 W/m 12,6 km/h (3 Bft)
09.01.2015 19:34 8,0 C 6,1 C 93 % 1015,2 hPa 0,0 l/m 0 min 2 min 0 W/m 14,6 km/h (3 Bft)
09.01.2015 19:36 8,0 C 6,7 C 93 % 1015,1 hPa 0,2 l/m 0 min 2 min 0 W/m 14,6 km/h (3 Bft)
09.01.2015 19:38 8,1 C 6,7 C 93 % 1015,1 hPa 0,0 l/m 0 min 0 min 0 W/m 16,7 km/h (3 Bft)
09.01.2015 19:40 8,1 C 6,7 C 93 % 1015,0 hPa 0,0 l/m 0 min 0 min 0 W/m 16,7 km/h (3 Bft)
09.01.2015 19:42 8,1 C 6,7 C 93 % 1015,1 hPa 0,0 l/m 0 min 2 min 0 W/m 14,6 km/h (3 Bft)
09.01.2015 19:44 8,1 C 6,7 C 94 % 1014,8 hPa 0,0 l/m 0 min 2 min 0 W/m 12,6 km/h (3 Bft)
09.01.2015 19:46 8,2 C 6,7 C 94 % 1014,7 hPa 0,0 l/m 0 min 2 min 0 W/m 14,6 km/h (3 Bft)
09.01.2015 19:48 8,2 C 7,2 C 94 % 1014,5 hPa 0,2 l/m 0 min 2 min 0 W/m 18,8 km/h (3 Bft)
09.01.2015 19:50 8,3 C 7,2 C 94 % 1014,5 hPa 0,0 l/m 0 min 2 min 0 W/m 20,9 km/h (4 Bft)
09.01.2015 19:52 8,4 C 7,2 C 94 % 1014,5 hPa 0,0 l/m 0 min 2 min 0 W/m 20,9 km/h (4 Bft)
09.01.2015 19:54 8,5 C 7,2 C 95 % 1014,5 hPa 0,2 l/m 0 min 2 min 0 W/m 29,3 km/h (5 Bft)
09.01.2015 19:56 8,6 C 7,2 C 95 % 1014,4 hPa 0,0 l/m 0 min 2 min 0 W/m 20,9 km/h (4 Bft)
09.01.2015 19:58 8,7 C 7,2 C 95 % 1014,2 hPa 0,0 l/m 0 min 2 min 0 W/m 23,0 km/h (4 Bft)
09.01.2015 20:00 8,7 C 7,2 C 95 % 1014,1 hPa 0,2 l/m 0 min 2 min 0 W/m 23,0 km/h (4 Bft)
09.01.2015 20:02 8,8 C 7,2 C 95 % 1014,0 hPa 0,0 l/m 0 min 2 min 0 W/m 25,1 km/h (4 Bft)
09.01.2015 20:04 8,8 C 7,2 C 95 % 1013,9 hPa 0,2 l/m 0 min 2 min 0 W/m 12,6 km/h (3 Bft)
09.01.2015 20:06 8,8 C 7,2 C 96 % 1013,8 hPa 0,0 l/m 0 min 2 min 0 W/m 14,6 km/h (3 Bft)
09.01.2015 20:08 8,8 C 7,2 C 96 % 1013,7 hPa 0,0 l/m 0 min 0 min 0 W/m 18,8 km/h (3 Bft)
09.01.2015 20:10 8,8 C 7,2 C 96 % 1013,6 hPa 0,0 l/m 0 min 0 min 0 W/m 20,9 km/h (4 Bft)
09.01.2015 20:12 8,9 C 7,2 C 96 % 1013,6 hPa 0,0 l/m 0 min 0 min 0 W/m 23,0 km/h (4 Bft)
09.01.2015 20:14 8,9 C 7,2 C 96 % 1013,5 hPa 0,0 l/m 0 min 0 min 0 W/m 12,6 km/h (3 Bft)
09.01.2015 20:16 8,9 C 7,2 C 96 % 1013,5 hPa 0,0 l/m 0 min 2 min 0 W/m 14,6 km/h (3 Bft)
09.01.2015 20:18 8,9 C 7,2 C 96 % 1013,6 hPa 0,0 l/m 0 min 2 min 0 W/m 12,6 km/h (3 Bft)
09.01.2015 20:20 8,9 C 7,2 C 96 % 1013,6 hPa 0,0 l/m 0 min 2 min 0 W/m 16,7 km/h (3 Bft)
09.01.2015 20:22 8,9 C 7,2 C 96 % 1013,6 hPa 0,0 l/m 0 min 2 min 0 W/m 12,6 km/h (3 Bft)
09.01.2015 20:24 8,9 C 7,2 C 96 % 1013,5 hPa 0,2 l/m 0 min 2 min 0 W/m 20,9 km/h (4 Bft)
09.01.2015 20:26 8,9 C 7,2 C 96 % 1013,4 hPa 0,0 l/m 0 min 2 min 0 W/m 23,0 km/h (4 Bft)
09.01.2015 20:28 8,9 C 7,2 C 96 % 1013,4 hPa 0,0 l/m 0 min 2 min 0 W/m 23,0 km/h (4 Bft)
09.01.2015 20:30 8,9 C 7,2 C 96 % 1013,4 hPa 0,0 l/m 0 min 2 min 0 W/m 18,8 km/h (3 Bft)
09.01.2015 20:32 8,9 C 7,2 C 96 % 1013,4 hPa 0,0 l/m 0 min 2 min 0 W/m 20,9 km/h (4 Bft)
09.01.2015 20:34 8,9 C 7,2 C 96 % 1013,4 hPa 0,2 l/m 0 min 2 min 0 W/m 23,0 km/h (4 Bft)
09.01.2015 20:36 9,0 C 7,2 C 96 % 1013,3 hPa 0,0 l/m 0 min 2 min 0 W/m 20,9 km/h (4 Bft)
09.01.2015 20:38 9,0 C 7,2 C 96 % 1013,4 hPa 0,0 l/m 0 min 2 min 0 W/m 16,7 km/h (3 Bft)
09.01.2015 20:40 9,0 C 7,2 C 96 % 1013,2 hPa 0,0 l/m 0 min 2 min 0 W/m 14,6 km/h (3 Bft)
09.01.2015 20:42 9,0 C 7,8 C 96 % 1013,2 hPa 0,0 l/m 0 min 2 min 0 W/m 29,3 km/h (5 Bft)
09.01.2015 20:44 9,1 C 7,8 C 96 % 1013,1 hPa 0,2 l/m 0 min 2 min 0 W/m 29,3 km/h (5 Bft)
09.01.2015 20:46 9,1 C 7,8 C 97 % 1013,0 hPa 0,0 l/m 0 min 2 min 0 W/m 31,4 km/h (5 Bft)
09.01.2015 20:48 9,1 C 7,8 C 97 % 1013,0 hPa 0,2 l/m 0 min 2 min 0 W/m 25,1 km/h (4 Bft)
09.01.2015 20:50 9,1 C 7,8 C 97 % 1013,0 hPa 0,0 l/m 0 min 2 min 0 W/m 20,9 km/h (4 Bft)
09.01.2015 20:52 9,1 C 7,8 C 97 % 1012,9 hPa 0,0 l/m 0 min 2 min 0 W/m 18,8 km/h (3 Bft)
09.01.2015 20:54 9,2 C 7,8 C 97 % 1012,8 hPa 0,0 l/m 0 min 2 min 0 W/m 31,4 km/h (5 Bft)
09.01.2015 20:56 9,2 C 7,8 C 97 % 1012,8 hPa 0,0 l/m 0 min 2 min 0 W/m 27,2 km/h (4 Bft)
09.01.2015 20:58 9,2 C 7,8 C 97 % 1012,9 hPa 0,2 l/m 0 min 2 min 0 W/m 23,0 km/h (4 Bft)
09.01.2015 21:00 9,2 C 7,8 C 97 % 1012,9 hPa 0,0 l/m 0 min 2 min 0 W/m 20,9 km/h (4 Bft)
09.01.2015 21:02 9,2 C 7,8 C 97 % 1012,9 hPa 0,0 l/m 0 min 2 min 0 W/m 33,5 km/h (5 Bft)
09.01.2015 21:04 9,3 C 7,8 C 97 % 1012,9 hPa 0,0 l/m 0 min 2 min 0 W/m 29,3 km/h (5 Bft)
09.01.2015 21:06 9,3 C 7,8 C 97 % 1012,8 hPa 0,0 l/m 0 min 2 min 0 W/m 27,2 km/h (4 Bft)
09.01.2015 21:08 9,4 C 7,8 C 97 % 1012,7 hPa 0,2 l/m 0 min 2 min 0 W/m 37,7 km/h (5 Bft)
09.01.2015 21:10 9,4 C 7,8 C 97 % 1012,7 hPa 0,0 l/m 0 min 2 min 0 W/m 29,3 km/h (5 Bft)
09.01.2015 21:12 9,4 C 7,8 C 97 % 1012,6 hPa 0,0 l/m 0 min 2 min 0 W/m 27,2 km/h (4 Bft)
09.01.2015 21:14 9,5 C 8,3 C 97 % 1012,5 hPa 0,0 l/m 0 min 2 min 0 W/m 35,6 km/h (5 Bft)
09.01.2015 21:16 9,6 C 8,3 C 97 % 1012,4 hPa 0,0 l/m 0 min 2 min 0 W/m 33,5 km/h (5 Bft)
09.01.2015 21:18 9,6 C 8,3 C 97 % 1012,3 hPa 0,0 l/m 0 min 2 min 0 W/m 33,5 km/h (5 Bft)
09.01.2015 21:20 9,7 C 8,3 C 97 % 1012,3 hPa 0,0 l/m 0 min 2 min 0 W/m 33,5 km/h (5 Bft)
09.01.2015 21:22 9,7 C 8,3 C 97 % 1012,2 hPa 0,2 l/m 0 min 2 min 0 W/m 35,6 km/h (5 Bft)
09.01.2015 21:24 9,8 C 8,3 C 97 % 1012,3 hPa 0,0 l/m 0 min 2 min 0 W/m 37,7 km/h (5 Bft)
09.01.2015 21:26 9,8 C 8,3 C 98 % 1012,4 hPa 0,0 l/m 0 min 2 min 0 W/m 39,7 km/h (6 Bft)
09.01.2015 21:28 9,9 C 8,3 C 98 % 1012,4 hPa 0,0 l/m 0 min 2 min 0 W/m 39,7 km/h (6 Bft)
09.01.2015 21:30 9,9 C 8,3 C 98 % 1012,3 hPa 0,0 l/m 0 min 2 min 0 W/m 41,8 km/h (6 Bft)
09.01.2015 21:32 10,0 C 8,9 C 98 % 1012,2 hPa 0,0 l/m 0 min 2 min 0 W/m 43,9 km/h (6 Bft)
09.01.2015 21:34 10,1 C 8,9 C 98 % 1012,2 hPa 0,0 l/m 0 min 2 min 0 W/m 37,7 km/h (5 Bft)
09.01.2015 21:36 10,2 C 8,9 C 98 % 1012,3 hPa 0,0 l/m 0 min 2 min 0 W/m 37,7 km/h (5 Bft)
09.01.2015 21:38 10,2 C 8,9 C 98 % 1012,2 hPa 0,0 l/m 0 min 2 min 0 W/m 39,7 km/h (6 Bft)
09.01.2015 21:40 10,3 C 8,9 C 98 % 1012,2 hPa 0,0 l/m 0 min 2 min 0 W/m 37,7 km/h (5 Bft)
09.01.2015 21:42 10,3 C 8,9 C 98 % 1012,2 hPa 0,0 l/m 0 min 0 min 0 W/m 48,1 km/h (6 Bft)
09.01.2015 21:44 10,4 C 8,9 C 98 % 1012,1 hPa 0,0 l/m 0 min 0 min 0 W/m 39,7 km/h (6 Bft)
09.01.2015 21:46 10,4 C 8,9 C 98 % 1012,0 hPa 0,0 l/m 0 min 0 min 0 W/m 48,1 km/h (6 Bft)
09.01.2015 21:48 10,5 C 8,9 C 98 % 1012,0 hPa 0,0 l/m 0 min 0 min 0 W/m 41,8 km/h (6 Bft)
09.01.2015 21:50 10,6 C 8,9 C 98 % 1012,2 hPa 0,0 l/m 0 min 0 min 0 W/m 39,7 km/h (6 Bft)
09.01.2015 21:52 10,6 C 9,4 C 98 % 1012,1 hPa 0,0 l/m 0 min 0 min 0 W/m 52,3 km/h (7 Bft)
09.01.2015 21:54 10,7 C 9,4 C 98 % 1012,0 hPa 0,0 l/m 0 min 0 min 0 W/m 43,9 km/h (6 Bft)
09.01.2015 21:56 10,8 C 9,4 C 98 % 1012,1 hPa 0,0 l/m 0 min 0 min 0 W/m 46,0 km/h (6 Bft)
09.01.2015 21:58 10,8 C 9,4 C 98 % 1012,2 hPa 0,0 l/m 0 min 0 min 0 W/m 39,7 km/h (6 Bft)
09.01.2015 22:00 10,8 C 9,4 C 98 % 1012,3 hPa 0,0 l/m 0 min 0 min 0 W/m 60,7 km/h (7 Bft)
09.01.2015 22:02 10,9 C 9,4 C 98 % 1012,1 hPa 0,0 l/m 0 min 0 min 0 W/m 43,9 km/h (6 Bft)
09.01.2015 22:04 11,0 C 9,4 C 98 % 1012,1 hPa 0,0 l/m 0 min 0 min 0 W/m 64,9 km/h (8 Bft)
09.01.2015 22:06 11,1 C 9,4 C 98 % 1012,3 hPa 0,2 l/m 0 min 0 min 0 W/m 39,7 km/h (6 Bft)
09.01.2015 22:08 11,1 C 9,4 C 98 % 1012,3 hPa 0,0 l/m 0 min 0 min 0 W/m 48,1 km/h (6 Bft)
09.01.2015 22:10 11,2 C 9,4 C 98 % 1012,3 hPa 0,0 l/m 0 min 0 min 0 W/m 31,4 km/h (5 Bft)
09.01.2015 22:12 11,2 C 9,4 C 98 % 1012,4 hPa 0,0 l/m 0 min 0 min 0 W/m 43,9 km/h (6 Bft)
09.01.2015 22:14 11,2 C 9,4 C 98 % 1012,3 hPa 0,0 l/m 0 min 2 min 0 W/m 52,3 km/h (7 Bft)
09.01.2015 22:16 11,3 C 10,0 C 98 % 1012,3 hPa 0,0 l/m 0 min 2 min 0 W/m 64,9 km/h (8 Bft)
09.01.2015 22:18 11,3 C 10,0 C 98 % 1012,4 hPa 0,0 l/m 0 min 2 min 0 W/m 37,7 km/h (5 Bft)
09.01.2015 22:20 11,4 C 10,0 C 98 % 1012,2 hPa 0,0 l/m 0 min 2 min 0 W/m 48,1 km/h (6 Bft)
09.01.2015 22:22 11,4 C 10,0 C 98 % 1012,1 hPa 0,0 l/m 0 min 2 min 0 W/m 39,7 km/h (6 Bft)
09.01.2015 22:24 11,4 C 10,0 C 98 % 1012,2 hPa 0,0 l/m 0 min 2 min 0 W/m 43,9 km/h (6 Bft)
09.01.2015 22:26 11,4 C 10,0 C 98 % 1012,3 hPa 0,0 l/m 0 min 2 min 0 W/m 48,1 km/h (6 Bft)
09.01.2015 22:28 11,5 C 10,0 C 98 % 1012,2 hPa 0,0 l/m 0 min 2 min 0 W/m 46,0 km/h (6 Bft)
09.01.2015 22:30 11,6 C 10,0 C 98 % 1012,3 hPa 0,2 l/m 0 min 2 min 0 W/m 43,9 km/h (6 Bft)
09.01.2015 22:32 11,6 C 10,0 C 98 % 1012,2 hPa 0,0 l/m 0 min 2 min 0 W/m 41,8 km/h (6 Bft)
09.01.2015 22:34 11,7 C 10,0 C 98 % 1012,4 hPa 0,0 l/m 0 min 2 min 0 W/m 58,6 km/h (7 Bft)
09.01.2015 22:36 11,7 C 10,0 C 98 % 1012,3 hPa 0,0 l/m 0 min 2 min 0 W/m 31,4 km/h (5 Bft)
09.01.2015 22:38 11,7 C 10,0 C 98 % 1012,3 hPa 0,0 l/m 0 min 2 min 0 W/m 50,2 km/h (7 Bft)
09.01.2015 22:40 11,7 C 10,0 C 98 % 1012,5 hPa 0,0 l/m 0 min 2 min 0 W/m 43,9 km/h (6 Bft)
09.01.2015 22:42 11,8 C 10,0 C 98 % 1012,6 hPa 0,0 l/m 0 min 2 min 0 W/m 33,5 km/h (5 Bft)
09.01.2015 22:44 11,8 C 10,0 C 98 % 1012,6 hPa 0,0 l/m 0 min 2 min 0 W/m 41,8 km/h (6 Bft)
09.01.2015 22:46 11,8 C 10,0 C 98 % 1012,5 hPa 0,2 l/m 0 min 2 min 0 W/m 41,8 km/h (6 Bft)
09.01.2015 22:48 11,8 C 10,0 C 98 % 1012,4 hPa 0,0 l/m 0 min 2 min 0 W/m 58,6 km/h (7 Bft)
09.01.2015 22:50 11,9 C 10,6 C 98 % 1012,6 hPa 0,0 l/m 0 min 2 min 0 W/m 43,9 km/h (6 Bft)
09.01.2015 22:52 11,9 C 10,6 C 98 % 1012,8 hPa 0,0 l/m 0 min 2 min 0 W/m 43,9 km/h (6 Bft)
09.01.2015 22:54 11,9 C 10,6 C 98 % 1012,4 hPa 0,0 l/m 0 min 2 min 0 W/m 39,7 km/h (6 Bft)
09.01.2015 22:56 12,0 C 10,6 C 98 % 1012,4 hPa 0,0 l/m 0 min 2 min 0 W/m 43,9 km/h (6 Bft)
09.01.2015 22:58 12,0 C 10,6 C 98 % 1012,3 hPa 0,0 l/m 0 min 2 min 0 W/m 46,0 km/h (6 Bft)
09.01.2015 23:00 12,1 C 10,6 C 99 % 1012,4 hPa 0,0 l/m 0 min 2 min 0 W/m 43,9 km/h (6 Bft)
09.01.2015 23:02 12,1 C 10,6 C 99 % 1012,3 hPa 0,0 l/m 0 min 2 min 0 W/m 46,0 km/h (6 Bft)
09.01.2015 23:04 12,2 C 10,6 C 99 % 1012,4 hPa 0,0 l/m 0 min 2 min 0 W/m 43,9 km/h (6 Bft)
09.01.2015 23:06 12,2 C 10,6 C 99 % 1012,3 hPa 0,0 l/m 0 min 2 min 0 W/m 33,5 km/h (5 Bft)
09.01.2015 23:08 12,2 C 10,6 C 99 % 1012,3 hPa 0,0 l/m 0 min 2 min 0 W/m 43,9 km/h (6 Bft)
09.01.2015 23:10 12,2 C 10,6 C 99 % 1012,3 hPa 0,0 l/m 0 min 0 min 0 W/m 56,5 km/h (7 Bft)
09.01.2015 23:12 12,3 C 10,6 C 98 % 1012,4 hPa 0,0 l/m 0 min 0 min 0 W/m 54,4 km/h (7 Bft)
09.01.2015 23:14 12,3 C 10,6 C 98 % 1012,5 hPa 0,0 l/m 0 min 0 min 0 W/m 48,1 km/h (6 Bft)
09.01.2015 23:16 12,3 C 10,6 C 98 % 1012,5 hPa 0,0 l/m 0 min 0 min 0 W/m 46,0 km/h (6 Bft)
09.01.2015 23:18 12,4 C 10,6 C 98 % 1012,5 hPa 0,0 l/m 0 min 0 min 0 W/m 33,5 km/h (5 Bft)
09.01.2015 23:20 12,4 C 10,6 C 98 % 1012,5 hPa 0,0 l/m 0 min 0 min 0 W/m 39,7 km/h (6 Bft)
09.01.2015 23:22 12,4 C 10,6 C 99 % 1012,6 hPa 0,0 l/m 0 min 0 min 0 W/m 48,1 km/h (6 Bft)
09.01.2015 23:24 12,4 C 10,6 C 99 % 1012,5 hPa 0,0 l/m 0 min 0 min 0 W/m 48,1 km/h (6 Bft)
09.01.2015 23:26 12,5 C 10,6 C 99 % 1012,4 hPa 0,0 l/m 0 min 0 min 0 W/m 33,5 km/h (5 Bft)
09.01.2015 23:28 12,5 C 11,1 C 99 % 1012,4 hPa 0,0 l/m 0 min 0 min 0 W/m 33,5 km/h (5 Bft)
09.01.2015 23:30 12,6 C 11,1 C 99 % 1012,5 hPa 0,0 l/m 0 min 0 min 0 W/m 43,9 km/h (6 Bft)
09.01.2015 23:32 12,6 C 11,1 C 98 % 1012,5 hPa 0,0 l/m 0 min 0 min 0 W/m 43,9 km/h (6 Bft)
09.01.2015 23:34 12,6 C 11,1 C 98 % 1012,5 hPa 0,0 l/m 0 min 0 min 0 W/m 35,6 km/h (5 Bft)
09.01.2015 23:36 12,7 C 11,1 C 98 % 1012,4 hPa 0,0 l/m 0 min 0 min 0 W/m 41,8 km/h (6 Bft)
09.01.2015 23:38 12,7 C 11,1 C 98 % 1012,5 hPa 0,0 l/m 0 min 0 min 0 W/m 33,5 km/h (5 Bft)
09.01.2015 23:40 12,7 C 11,1 C 98 % 1012,6 hPa 0,0 l/m 0 min 0 min 0 W/m 56,5 km/h (7 Bft)
09.01.2015 23:42 12,7 C 11,1 C 98 % 1012,6 hPa 0,0 l/m 0 min 0 min 0 W/m 39,7 km/h (6 Bft)
09.01.2015 23:44 12,7 C 11,1 C 98 % 1012,5 hPa 0,0 l/m 0 min 0 min 0 W/m 37,7 km/h (5 Bft)
09.01.2015 23:46 12,8 C 11,1 C 98 % 1012,5 hPa 0,0 l/m 0 min 0 min 0 W/m 46,0 km/h (6 Bft)
09.01.2015 23:48 12,8 C 11,1 C 98 % 1012,8 hPa 0,0 l/m 0 min 0 min 0 W/m 46,0 km/h (6 Bft)
09.01.2015 23:50 12,8 C 11,1 C 98 % 1012,7 hPa 0,0 l/m 0 min 0 min 0 W/m 37,7 km/h (5 Bft)
09.01.2015 23:52 12,9 C 11,1 C 98 % 1012,5 hPa 0,0 l/m 0 min 0 min 0 W/m 35,6 km/h (5 Bft)
09.01.2015 23:54 12,9 C 11,1 C 98 % 1012,6 hPa 0,0 l/m 0 min 0 min 0 W/m 35,6 km/h (5 Bft)
09.01.2015 23:56 12,9 C 11,1 C 98 % 1012,6 hPa 0,0 l/m 0 min 0 min 0 W/m 37,7 km/h (5 Bft)
09.01.2015 23:58 12,9 C 11,7 C 98 % 1012,6 hPa 0,0 l/m 0 min 0 min 0 W/m 54,4 km/h (7 Bft)
_ Min-Zeit 01:50 01:08 17:54 21:46 - - - - 18:56
Minimum _ 5,6 C 3,9 C 80 % 1012,0 hPa - - - - 4,2 km/h (1 Bft)
_ Max-Zeit 23:52 23:58 23:00 00:00 17:52 00:00 17:40 13:16 08:38
Maximum _ 12,9 C 11,7 C 99 % 1026,8 hPa 0,2 l/m 0 min 2 min 92 W/m 69,0 km/h
W (8 Bft)
Durchschnitt _ 8,7 C 7,2 C 92 % 1018,6 hPa #6,8 l/m #0 min. #4:41 h 37 W/m 36,2 km/h (5 Bft)
© 2015 W. Hausmann